THY2001 LTFM-SBGR
Flight info
| Callsign | THY2001 |
|---|---|
| Flight time | N/A |
| Altitude | 28000 |
| Route | BARPE/N0483F300 UM603 SUTIS DCT RUTOM/N0492F290 DCT LORED/N0484F280 DCT BASMO UR783 MON/N0492F300 UR783 TBS UG864 BRENA/N0493F320 UA854 ARDAR UR975 ANITI UA302 TURUP DCT 05N024W/N0496F340 DCT KODOS UL206 DAGTA/N0488F360 UL206 VRI UN401 SIDUR UZ10 EDMUS |
| Aircraft | B763/H-SDE3FGHIM3RWXY/LB1 |
Departure
| Time | 2026-05-04 23:23 |
|---|---|
| Airport | İstanbul Airport (LTFM) |
Arrival
| Time | N/A |
|---|---|
| Airport | São Paulo/Guarulhos–Governor André Franco Montoro International Airport (SBGR) |
| Time | Latitude | Longitude | Altitude | Speed | Heading |
|---|---|---|---|---|---|
| 2026-05-04 23:05 | 41.26768 | 28.73534 | 337 ft | 0 kts | 180° |
| 2026-05-04 23:11 | 41.26771 | 28.73534 | 337 ft | 2 kts | 180° |
| 2026-05-04 23:11 | 41.26786 | 28.73535 | 337 ft | 2 kts | 180° |
| 2026-05-04 23:11 | 41.26801 | 28.73534 | 337 ft | 2 kts | 179° |
| 2026-05-04 23:12 | 41.26815 | 28.73535 | 337 ft | 2 kts | 194° |
| 2026-05-04 23:12 | 41.26829 | 28.73542 | 337 ft | 2 kts | 208° |
| 2026-05-04 23:12 | 41.26841 | 28.73552 | 337 ft | 2 kts | 222° |
| 2026-05-04 23:12 | 41.26851 | 28.73567 | 337 ft | 2 kts | 236° |
| 2026-05-04 23:13 | 41.26858 | 28.73584 | 337 ft | 2 kts | 250° |
| 2026-05-04 23:13 | 41.26862 | 28.73603 | 337 ft | 2 kts | 264° |
| 2026-05-04 23:13 | 41.26862 | 28.73612 | 337 ft | 1 kts | 270° |
| 2026-05-04 23:13 | 41.26862 | 28.73614 | 337 ft | 0 kts | 269° |
| 2026-05-04 23:16 | 41.26862 | 28.73608 | 337 ft | 2 kts | 269° |
| 2026-05-04 23:16 | 41.26862 | 28.73575 | 337 ft | 4 kts | 269° |
| 2026-05-04 23:17 | 41.26862 | 28.73527 | 337 ft | 5 kts | 269° |
| 2026-05-04 23:17 | 41.26861 | 28.73470 | 337 ft | 6 kts | 270° |
| 2026-05-04 23:17 | 41.26861 | 28.73419 | 337 ft | 5 kts | 270° |
| 2026-05-04 23:17 | 41.26860 | 28.73356 | 337 ft | 8 kts | 269° |
| 2026-05-04 23:18 | 41.26859 | 28.73260 | 337 ft | 12 kts | 269° |
| 2026-05-04 23:18 | 41.26858 | 28.73134 | 337 ft | 15 kts | 270° |
| 2026-05-04 23:18 | 41.26824 | 28.72999 | 337 ft | 16 kts | 206° |
| 2026-05-04 23:18 | 41.26713 | 28.72988 | 337 ft | 15 kts | 178° |
| 2026-05-04 23:19 | 41.26600 | 28.72993 | 337 ft | 16 kts | 179° |
| 2026-05-04 23:19 | 41.26483 | 28.72996 | 337 ft | 16 kts | 179° |
| 2026-05-04 23:19 | 41.26366 | 28.72998 | 337 ft | 16 kts | 180° |
| 2026-05-04 23:19 | 41.26255 | 28.72996 | 337 ft | 14 kts | 191° |
| 2026-05-04 23:20 | 41.26203 | 28.72906 | 337 ft | 10 kts | 257° |
| 2026-05-04 23:20 | 41.26203 | 28.72819 | 337 ft | 8 kts | 271° |
| 2026-05-04 23:20 | 41.26204 | 28.72755 | 337 ft | 5 kts | 271° |
| 2026-05-04 23:20 | 41.26204 | 28.72695 | 337 ft | 7 kts | 270° |
| 2026-05-04 23:21 | 41.26203 | 28.72610 | 337 ft | 10 kts | 270° |
| 2026-05-04 23:21 | 41.26210 | 28.72536 | 337 ft | 5 kts | 293° |
| 2026-05-04 23:21 | 41.26216 | 28.72528 | 337 ft | 0 kts | 324° |
| 2026-05-04 23:21 | 41.26222 | 28.72524 | 337 ft | 2 kts | 331° |
| 2026-05-04 23:22 | 41.26241 | 28.72522 | 337 ft | 0 kts | 2° |
| 2026-05-04 23:22 | 41.26243 | 28.72522 | 337 ft | 2 kts | 2° |
| 2026-05-04 23:23 | 41.26472 | 28.72520 | 337 ft | 68 kts | 359° |
| 2026-05-04 23:23 | 41.27187 | 28.72505 | 337 ft | 137 kts | 359° |
| 2026-05-04 23:23 | 41.28372 | 28.72483 | 355 ft | 198 kts | 359° |
| 2026-05-04 23:23 | 41.29809 | 28.72461 | 1021 ft | 215 kts | 359° |
| 2026-05-04 23:24 | 41.31311 | 28.72467 | 1982 ft | 225 kts | 1° |
| 2026-05-04 23:24 | 41.32897 | 28.72498 | 2904 ft | 230 kts | 1° |
| 2026-05-04 23:24 | 41.34483 | 28.72510 | 3937 ft | 232 kts | 1° |
| 2026-05-04 23:24 | 41.36078 | 28.72323 | 4815 ft | 241 kts | 343° |
| 2026-05-04 23:25 | 41.37484 | 28.71088 | 5745 ft | 255 kts | 315° |
| 2026-05-04 23:25 | 41.38281 | 28.68938 | 6621 ft | 275 kts | 286° |
| 2026-05-04 23:25 | 41.38311 | 28.66316 | 7482 ft | 289 kts | 272° |
| 2026-05-04 23:25 | 41.38196 | 28.63648 | 8320 ft | 293 kts | 275° |
| 2026-05-04 23:26 | 41.38110 | 28.60930 | 9162 ft | 299 kts | 268° |
| 2026-05-04 23:26 | 41.37459 | 28.58264 | 9892 ft | 318 kts | 242° |
| 2026-05-04 23:26 | 41.35981 | 28.56074 | 10533 ft | 334 kts | 218° |
| 2026-05-04 23:26 | 41.33857 | 28.54533 | 10657 ft | 364 kts | 199° |
| 2026-05-04 23:27 | 41.31284 | 28.53804 | 10791 ft | 392 kts | 182° |
| 2026-05-04 23:27 | 41.28495 | 28.54043 | 11127 ft | 408 kts | 166° |
| 2026-05-04 23:27 | 41.25701 | 28.54744 | 12013 ft | 414 kts | 173° |
| 2026-05-04 23:27 | 41.22825 | 28.54650 | 12845 ft | 422 kts | 189° |
| 2026-05-04 23:28 | 41.19981 | 28.53655 | 13684 ft | 427 kts | 199° |
| 2026-05-04 23:28 | 41.17161 | 28.52434 | 14430 ft | 433 kts | 197° |
| 2026-05-04 23:28 | 41.14286 | 28.51246 | 15194 ft | 438 kts | 198° |
| 2026-05-04 23:28 | 41.11342 | 28.50027 | 15912 ft | 444 kts | 197° |
| 2026-05-04 23:29 | 41.08380 | 28.48801 | 16643 ft | 449 kts | 197° |
| 2026-05-04 23:29 | 41.05400 | 28.47571 | 17295 ft | 455 kts | 197° |
| 2026-05-04 23:29 | 41.02359 | 28.46317 | 18005 ft | 458 kts | 197° |
| 2026-05-04 23:29 | 40.99329 | 28.45069 | 18605 ft | 464 kts | 197° |
| 2026-05-04 23:30 | 40.96287 | 28.43612 | 19243 ft | 469 kts | 205° |
| 2026-05-04 23:30 | 40.93397 | 28.41501 | 19834 ft | 474 kts | 216° |
| 2026-05-04 23:30 | 40.90822 | 28.38815 | 20452 ft | 475 kts | 226° |
| 2026-05-04 23:30 | 40.88591 | 28.35608 | 21060 ft | 475 kts | 236° |
| 2026-05-04 23:31 | 40.86778 | 28.31992 | 21599 ft | 474 kts | 245° |
| 2026-05-04 23:31 | 40.85446 | 28.28090 | 22167 ft | 471 kts | 255° |
| 2026-05-04 23:31 | 40.84598 | 28.23909 | 22716 ft | 467 kts | 265° |
| 2026-05-04 23:31 | 40.84101 | 28.19684 | 23234 ft | 469 kts | 265° |
| 2026-05-04 23:32 | 40.83514 | 28.15475 | 23704 ft | 473 kts | 264° |
| 2026-05-04 23:32 | 40.82900 | 28.11164 | 24247 ft | 475 kts | 264° |
| 2026-05-04 23:32 | 40.82272 | 28.06927 | 24754 ft | 477 kts | 264° |
| 2026-05-04 23:32 | 40.81630 | 28.02638 | 25238 ft | 480 kts | 264° |
| 2026-05-04 23:33 | 40.80970 | 27.98274 | 25774 ft | 481 kts | 264° |
| 2026-05-04 23:33 | 40.80319 | 27.93989 | 26175 ft | 484 kts | 264° |
| 2026-05-04 23:33 | 40.79693 | 27.89644 | 26624 ft | 483 kts | 267° |
| 2026-05-04 23:33 | 40.79471 | 27.85219 | 26982 ft | 479 kts | 276° |
| 2026-05-04 23:34 | 40.79523 | 27.80881 | 27436 ft | 479 kts | 276° |
| 2026-05-04 23:34 | 40.79549 | 27.76497 | 27721 ft | 482 kts | 276° |
| 2026-05-04 23:34 | 40.79586 | 27.72041 | 28164 ft | 482 kts | 276° |
| 2026-05-04 23:34 | 40.79624 | 27.67669 | 28440 ft | 484 kts | 276° |
| 2026-05-04 23:35 | 40.79662 | 27.63215 | 28732 ft | 485 kts | 276° |
| 2026-05-04 23:35 | 40.79699 | 27.58785 | 29129 ft | 484 kts | 277° |
| 2026-05-04 23:35 | 40.79971 | 27.54371 | 29456 ft | 479 kts | 282° |
| 2026-05-04 23:35 | 40.80327 | 27.50051 | 29804 ft | 479 kts | 281° |
| 2026-05-04 23:36 | 40.80648 | 27.45690 | 30106 ft | 478 kts | 281° |
| 2026-05-04 23:36 | 40.80956 | 27.41338 | 30459 ft | 477 kts | 280° |
| 2026-05-04 23:36 | 40.81258 | 27.36979 | 30722 ft | 477 kts | 280° |
| 2026-05-04 23:36 | 40.81554 | 27.32612 | 30960 ft | 477 kts | 279° |
| 2026-05-04 23:37 | 40.81844 | 27.28277 | 31206 ft | 477 kts | 279° |
| 2026-05-04 23:37 | 40.82135 | 27.23909 | 31437 ft | 477 kts | 279° |
| 2026-05-04 23:37 | 40.82422 | 27.19538 | 31703 ft | 477 kts | 279° |
| 2026-05-04 23:37 | 40.82707 | 27.15184 | 31904 ft | 477 kts | 279° |
| 2026-05-04 23:38 | 40.82864 | 27.12762 | 32013 ft | 476 kts | 279° |
| 2026-05-04 23:38 | 40.83147 | 27.08390 | 32051 ft | 475 kts | 279° |
| 2026-05-04 23:38 | 40.83705 | 26.99695 | 32056 ft | 475 kts | 279° |
| 2026-05-04 23:39 | 40.84256 | 26.91003 | 32059 ft | 475 kts | 278° |
| 2026-05-04 23:39 | 40.84796 | 26.82368 | 32066 ft | 474 kts | 278° |
| 2026-05-04 23:40 | 40.85330 | 26.73730 | 32064 ft | 475 kts | 278° |
| 2026-05-04 23:40 | 40.85864 | 26.64985 | 32065 ft | 475 kts | 278° |
| 2026-05-04 23:41 | 40.86386 | 26.56333 | 32064 ft | 475 kts | 278° |
| 2026-05-04 23:41 | 40.86903 | 26.47656 | 32068 ft | 476 kts | 278° |
| 2026-05-04 23:42 | 40.87413 | 26.38980 | 32069 ft | 475 kts | 278° |
| 2026-05-04 23:42 | 40.87913 | 26.30352 | 32069 ft | 475 kts | 277° |
| 2026-05-04 23:43 | 40.87833 | 26.21624 | 32083 ft | 481 kts | 266° |
| 2026-05-04 23:43 | 40.87043 | 26.12908 | 32069 ft | 482 kts | 266° |
| 2026-05-04 23:44 | 40.86208 | 26.04125 | 32064 ft | 481 kts | 266° |
| 2026-05-04 23:44 | 40.85358 | 25.95400 | 32067 ft | 482 kts | 265° |
| 2026-05-04 23:45 | 40.84305 | 25.86653 | 32058 ft | 481 kts | 264° |
| 2026-05-04 23:45 | 40.83249 | 25.77968 | 32062 ft | 480 kts | 264° |
| 2026-05-04 23:46 | 40.82198 | 25.69371 | 32063 ft | 479 kts | 264° |
| 2026-05-04 23:46 | 40.81135 | 25.60724 | 32065 ft | 479 kts | 263° |
| 2026-05-04 23:47 | 40.80065 | 25.52080 | 32066 ft | 479 kts | 264° |
| 2026-05-04 23:47 | 40.78985 | 25.43408 | 32065 ft | 479 kts | 264° |
| 2026-05-04 23:48 | 40.77905 | 25.34803 | 32069 ft | 478 kts | 263° |
| 2026-05-04 23:48 | 40.76816 | 25.26175 | 32070 ft | 477 kts | 263° |
| 2026-05-04 23:49 | 40.75724 | 25.17580 | 32067 ft | 476 kts | 263° |
| 2026-05-04 23:49 | 40.74627 | 25.08998 | 32068 ft | 476 kts | 263° |
| 2026-05-04 23:50 | 40.73524 | 25.00438 | 32066 ft | 476 kts | 263° |
| 2026-05-04 23:50 | 40.72413 | 24.91860 | 32069 ft | 477 kts | 262° |
| 2026-05-04 23:51 | 40.71291 | 24.83252 | 32070 ft | 476 kts | 262° |
| 2026-05-04 23:51 | 40.69940 | 24.74755 | 32079 ft | 478 kts | 253° |
| 2026-05-04 23:52 | 40.67327 | 24.66672 | 32069 ft | 481 kts | 248° |
| 2026-05-04 23:52 | 40.64599 | 24.58695 | 32071 ft | 478 kts | 248° |
| 2026-05-04 23:53 | 40.61858 | 24.50751 | 32073 ft | 478 kts | 248° |
| 2026-05-04 23:53 | 40.59115 | 24.42844 | 32077 ft | 478 kts | 248° |
| 2026-05-04 23:54 | 40.56354 | 24.34910 | 32074 ft | 479 kts | 247° |
| 2026-05-04 23:54 | 40.53567 | 24.26928 | 32077 ft | 479 kts | 247° |
| 2026-05-04 23:55 | 40.50792 | 24.19002 | 32077 ft | 479 kts | 247° |
| 2026-05-04 23:56 | 40.46627 | 24.07147 | 32078 ft | 478 kts | 247° |
| 2026-05-04 23:56 | 40.43854 | 23.99281 | 32078 ft | 478 kts | 247° |
| 2026-05-04 23:57 | 40.41053 | 23.91357 | 32075 ft | 478 kts | 247° |
| 2026-05-04 23:57 | 40.38254 | 23.83463 | 32073 ft | 479 kts | 247° |
| 2026-05-04 23:58 | 40.35446 | 23.75563 | 32071 ft | 480 kts | 247° |
| 2026-05-04 23:58 | 40.32635 | 23.67679 | 32074 ft | 480 kts | 247° |
| 2026-05-04 23:59 | 40.29813 | 23.59780 | 32072 ft | 481 kts | 247° |
| 2026-05-04 23:59 | 40.26982 | 23.51881 | 32070 ft | 480 kts | 247° |
| 2026-05-05 00:00 | 40.24139 | 23.43970 | 32067 ft | 479 kts | 247° |
| 2026-05-05 00:00 | 40.21304 | 23.36105 | 32074 ft | 481 kts | 247° |
| 2026-05-05 00:01 | 40.18447 | 23.28197 | 32072 ft | 481 kts | 246° |
| 2026-05-05 00:01 | 40.15597 | 23.20333 | 32076 ft | 482 kts | 246° |
| 2026-05-05 00:02 | 40.12734 | 23.12451 | 32073 ft | 482 kts | 247° |
| 2026-05-05 00:02 | 40.09865 | 23.04574 | 32073 ft | 481 kts | 246° |
| 2026-05-05 00:03 | 40.06992 | 22.96713 | 32082 ft | 481 kts | 247° |
| 2026-05-05 00:03 | 40.04118 | 22.88863 | 32075 ft | 481 kts | 247° |
| 2026-05-05 00:04 | 40.01242 | 22.81033 | 32077 ft | 479 kts | 247° |
| 2026-05-05 00:04 | 39.98360 | 22.73208 | 32094 ft | 479 kts | 248° |
| 2026-05-05 00:05 | 39.95475 | 22.65395 | 32113 ft | 479 kts | 248° |
| 2026-05-05 00:05 | 39.92584 | 22.57584 | 32111 ft | 479 kts | 248° |
| 2026-05-05 00:06 | 39.89701 | 22.49814 | 32113 ft | 479 kts | 248° |
| 2026-05-05 00:06 | 39.86818 | 22.42068 | 32126 ft | 478 kts | 249° |
| 2026-05-05 00:07 | 39.83920 | 22.34303 | 32114 ft | 478 kts | 248° |
| 2026-05-05 00:07 | 39.81015 | 22.26536 | 32115 ft | 481 kts | 249° |
| 2026-05-05 00:08 | 39.78087 | 22.18731 | 32104 ft | 482 kts | 249° |
| 2026-05-05 00:08 | 39.75164 | 22.10959 | 32112 ft | 480 kts | 249° |
| 2026-05-05 00:09 | 39.72226 | 22.03169 | 32116 ft | 478 kts | 249° |
| 2026-05-05 00:09 | 39.69308 | 21.95450 | 32117 ft | 477 kts | 249° |
| 2026-05-05 00:10 | 39.66390 | 21.87751 | 32123 ft | 477 kts | 249° |
| 2026-05-05 00:10 | 39.63466 | 21.80055 | 32128 ft | 477 kts | 250° |
| 2026-05-05 00:11 | 39.60531 | 21.72351 | 32127 ft | 477 kts | 250° |
| 2026-05-05 00:11 | 39.57602 | 21.64683 | 32131 ft | 477 kts | 250° |
| 2026-05-05 00:12 | 39.54664 | 21.57012 | 32139 ft | 478 kts | 250° |
| 2026-05-05 00:12 | 39.51725 | 21.49358 | 32146 ft | 477 kts | 250° |
| 2026-05-05 00:13 | 39.48779 | 21.41707 | 32154 ft | 476 kts | 250° |
| 2026-05-05 00:13 | 39.45826 | 21.34052 | 32150 ft | 475 kts | 249° |
| 2026-05-05 00:14 | 39.42876 | 21.26429 | 32156 ft | 474 kts | 249° |
| 2026-05-05 00:14 | 39.39927 | 21.18825 | 32159 ft | 474 kts | 249° |
| 2026-05-05 00:15 | 39.36986 | 21.11263 | 32148 ft | 474 kts | 249° |
| 2026-05-05 00:15 | 39.34019 | 21.03651 | 32145 ft | 473 kts | 249° |
| 2026-05-05 00:16 | 39.31072 | 20.96111 | 32143 ft | 473 kts | 249° |
| 2026-05-05 00:16 | 39.28108 | 20.88545 | 32142 ft | 473 kts | 249° |
| 2026-05-05 00:17 | 39.25144 | 20.80998 | 32145 ft | 472 kts | 249° |
| 2026-05-05 00:17 | 39.22185 | 20.73485 | 32139 ft | 472 kts | 249° |
| 2026-05-05 00:18 | 39.19217 | 20.65963 | 32137 ft | 471 kts | 249° |
| 2026-05-05 00:18 | 39.16253 | 20.58474 | 32133 ft | 471 kts | 249° |
| 2026-05-05 00:19 | 39.13278 | 20.50972 | 32131 ft | 471 kts | 249° |
| 2026-05-05 00:19 | 39.10310 | 20.43511 | 32124 ft | 470 kts | 249° |
| 2026-05-05 00:20 | 39.07338 | 20.36053 | 32127 ft | 470 kts | 250° |
| 2026-05-05 00:20 | 39.04364 | 20.28612 | 32125 ft | 470 kts | 249° |
| 2026-05-05 00:21 | 39.01365 | 20.21124 | 32123 ft | 470 kts | 249° |
| 2026-05-05 00:21 | 38.98378 | 20.13686 | 32123 ft | 469 kts | 249° |
| 2026-05-05 00:22 | 38.95409 | 20.06307 | 32121 ft | 469 kts | 249° |
| 2026-05-05 00:22 | 38.92406 | 19.98868 | 32117 ft | 468 kts | 249° |
| 2026-05-05 00:23 | 38.89406 | 19.91448 | 32107 ft | 469 kts | 249° |
| 2026-05-05 00:23 | 38.86413 | 19.84068 | 32101 ft | 468 kts | 249° |
| 2026-05-05 00:24 | 38.83413 | 19.76685 | 32110 ft | 469 kts | 249° |
| 2026-05-05 00:24 | 38.80402 | 19.69297 | 32109 ft | 467 kts | 249° |
| 2026-05-05 00:25 | 38.77407 | 19.61960 | 32105 ft | 467 kts | 250° |
| 2026-05-05 00:25 | 38.74384 | 19.54575 | 32107 ft | 468 kts | 250° |
| 2026-05-05 00:26 | 38.71370 | 19.47232 | 32112 ft | 467 kts | 250° |
| 2026-05-05 00:26 | 38.68361 | 19.39910 | 32103 ft | 468 kts | 250° |
| 2026-05-05 00:27 | 38.65325 | 19.32546 | 32111 ft | 467 kts | 249° |
| 2026-05-05 00:27 | 38.62297 | 19.25218 | 32114 ft | 467 kts | 249° |
| 2026-05-05 00:28 | 38.59264 | 19.17897 | 32113 ft | 469 kts | 249° |
| 2026-05-05 00:28 | 38.56193 | 19.10498 | 32109 ft | 469 kts | 249° |
| 2026-05-05 00:29 | 38.53162 | 19.03216 | 32110 ft | 468 kts | 249° |
| 2026-05-05 00:29 | 38.49580 | 18.96212 | 32107 ft | 473 kts | 242° |
| 2026-05-05 00:30 | 38.45768 | 18.89381 | 32107 ft | 476 kts | 242° |
| 2026-05-05 00:30 | 38.41889 | 18.82529 | 32109 ft | 476 kts | 242° |
| 2026-05-05 00:31 | 38.38027 | 18.75748 | 32110 ft | 472 kts | 241° |
| 2026-05-05 00:31 | 38.34178 | 18.69005 | 32113 ft | 473 kts | 241° |
| 2026-05-05 00:32 | 38.30328 | 18.62282 | 32112 ft | 473 kts | 241° |
| 2026-05-05 00:32 | 38.26439 | 18.55500 | 32118 ft | 473 kts | 241° |
| 2026-05-05 00:33 | 38.22592 | 18.48808 | 32117 ft | 472 kts | 241° |
| 2026-05-05 00:33 | 38.18701 | 18.42054 | 32118 ft | 472 kts | 241° |
| 2026-05-05 00:34 | 38.14861 | 18.35401 | 32117 ft | 469 kts | 240° |
| 2026-05-05 00:34 | 38.10977 | 18.28684 | 32120 ft | 472 kts | 240° |
| 2026-05-05 00:35 | 38.07116 | 18.22025 | 32116 ft | 469 kts | 240° |
| 2026-05-05 00:35 | 38.03264 | 18.15391 | 32125 ft | 469 kts | 240° |
| 2026-05-05 00:36 | 37.99393 | 18.08738 | 32120 ft | 469 kts | 240° |
| 2026-05-05 00:36 | 37.95524 | 18.02102 | 32115 ft | 468 kts | 240° |
| 2026-05-05 00:37 | 37.91692 | 17.95544 | 32122 ft | 467 kts | 240° |
| 2026-05-05 00:37 | 37.87830 | 17.88948 | 32107 ft | 467 kts | 239° |
| 2026-05-05 00:38 | 37.83958 | 17.82347 | 32108 ft | 467 kts | 239° |
| 2026-05-05 00:38 | 37.80085 | 17.75758 | 32107 ft | 466 kts | 239° |
| 2026-05-05 00:39 | 37.76247 | 17.69241 | 32115 ft | 465 kts | 239° |
| 2026-05-05 00:39 | 37.72395 | 17.62713 | 32111 ft | 464 kts | 239° |
| 2026-05-05 00:40 | 37.68533 | 17.56181 | 32107 ft | 463 kts | 239° |
| 2026-05-05 00:40 | 37.64691 | 17.49697 | 32109 ft | 463 kts | 239° |
| 2026-05-05 00:41 | 37.60826 | 17.43184 | 32116 ft | 463 kts | 239° |
| 2026-05-05 00:41 | 37.56991 | 17.36737 | 32105 ft | 462 kts | 239° |
| 2026-05-05 00:42 | 37.53147 | 17.30286 | 32117 ft | 462 kts | 238° |
| 2026-05-05 00:42 | 37.49276 | 17.23804 | 32123 ft | 462 kts | 238° |
| 2026-05-05 00:43 | 37.45427 | 17.17369 | 32119 ft | 461 kts | 238° |
| 2026-05-05 00:43 | 37.41584 | 17.10958 | 32117 ft | 462 kts | 238° |
| 2026-05-05 00:44 | 37.37717 | 17.04519 | 32120 ft | 461 kts | 238° |
| 2026-05-05 00:44 | 37.33865 | 16.98118 | 32119 ft | 461 kts | 238° |
| 2026-05-05 00:45 | 37.29989 | 16.91688 | 32122 ft | 462 kts | 238° |
| 2026-05-05 00:45 | 37.26106 | 16.85262 | 32113 ft | 460 kts | 238° |
| 2026-05-05 00:46 | 37.22265 | 16.78914 | 32113 ft | 460 kts | 238° |
| 2026-05-05 00:46 | 37.18388 | 16.72519 | 32114 ft | 460 kts | 238° |
| 2026-05-05 00:47 | 37.14535 | 16.66176 | 32114 ft | 461 kts | 238° |
| 2026-05-05 00:47 | 37.10644 | 16.59784 | 32117 ft | 460 kts | 237° |
| 2026-05-05 00:48 | 37.06770 | 16.53431 | 32120 ft | 460 kts | 237° |
| 2026-05-05 00:48 | 37.02900 | 16.47099 | 32119 ft | 459 kts | 237° |
| 2026-05-05 00:49 | 36.99031 | 16.40778 | 32118 ft | 458 kts | 237° |
| 2026-05-05 00:49 | 36.95168 | 16.34478 | 32117 ft | 460 kts | 237° |
| 2026-05-05 00:50 | 36.91269 | 16.28132 | 32121 ft | 459 kts | 237° |
| 2026-05-05 00:50 | 36.87384 | 16.21822 | 32118 ft | 459 kts | 237° |
| 2026-05-05 00:51 | 36.83495 | 16.15517 | 32120 ft | 459 kts | 237° |
| 2026-05-05 00:51 | 36.79595 | 16.09205 | 32119 ft | 459 kts | 236° |
| 2026-05-05 00:52 | 36.75708 | 16.02927 | 32120 ft | 459 kts | 236° |
| 2026-05-05 00:52 | 36.71819 | 15.96656 | 32122 ft | 459 kts | 236° |
| 2026-05-05 00:53 | 36.67932 | 15.90402 | 32123 ft | 459 kts | 236° |
| 2026-05-05 00:53 | 36.64017 | 15.84113 | 32118 ft | 460 kts | 236° |
| 2026-05-05 00:54 | 36.60121 | 15.77866 | 32120 ft | 459 kts | 236° |
| 2026-05-05 00:54 | 36.56192 | 15.71579 | 32116 ft | 458 kts | 236° |
| 2026-05-05 00:55 | 36.52317 | 15.65338 | 32118 ft | 457 kts | 239° |
| 2026-05-05 00:55 | 36.49615 | 15.58335 | 32136 ft | 447 kts | 258° |
| 2026-05-05 00:56 | 36.48419 | 15.50799 | 32121 ft | 446 kts | 262° |
| 2026-05-05 00:56 | 36.47302 | 15.43242 | 32120 ft | 446 kts | 262° |
| 2026-05-05 00:57 | 36.46186 | 15.35690 | 32124 ft | 446 kts | 262° |
| 2026-05-05 00:57 | 36.45070 | 15.28157 | 32124 ft | 447 kts | 262° |
| 2026-05-05 00:58 | 36.43942 | 15.20581 | 32125 ft | 446 kts | 262° |
| 2026-05-05 00:58 | 36.42810 | 15.13019 | 32124 ft | 447 kts | 262° |
| 2026-05-05 00:59 | 36.41680 | 15.05485 | 32125 ft | 447 kts | 262° |
| 2026-05-05 00:59 | 36.40541 | 14.97938 | 32123 ft | 446 kts | 262° |
| 2026-05-05 01:00 | 36.39394 | 14.90371 | 32120 ft | 446 kts | 262° |
| 2026-05-05 01:00 | 36.38247 | 14.82829 | 32118 ft | 445 kts | 262° |
| 2026-05-05 01:01 | 36.37102 | 14.75342 | 32119 ft | 446 kts | 262° |
| 2026-05-05 01:01 | 36.35943 | 14.67794 | 32121 ft | 445 kts | 262° |
| 2026-05-05 01:02 | 36.34781 | 14.60262 | 32118 ft | 446 kts | 262° |
| 2026-05-05 01:02 | 36.33620 | 14.52763 | 32115 ft | 445 kts | 262° |
| 2026-05-05 01:03 | 36.32447 | 14.45222 | 32113 ft | 445 kts | 262° |
| 2026-05-05 01:03 | 36.31279 | 14.37746 | 32112 ft | 444 kts | 262° |
| 2026-05-05 01:04 | 36.30099 | 14.30229 | 32119 ft | 445 kts | 261° |
| 2026-05-05 01:04 | 36.28325 | 14.18987 | 32122 ft | 445 kts | 261° |
| 2026-05-05 01:05 | 36.27132 | 14.11460 | 32119 ft | 444 kts | 261° |
| 2026-05-05 01:05 | 36.25941 | 14.03979 | 32115 ft | 444 kts | 261° |
| 2026-05-05 01:06 | 36.24747 | 13.96513 | 32112 ft | 444 kts | 261° |
| 2026-05-05 01:06 | 36.23544 | 13.89027 | 32111 ft | 443 kts | 261° |
| 2026-05-05 01:07 | 36.22340 | 13.81561 | 32111 ft | 443 kts | 261° |
| 2026-05-05 01:07 | 36.21134 | 13.74117 | 32108 ft | 445 kts | 261° |
| 2026-05-05 01:08 | 36.19914 | 13.66611 | 32103 ft | 443 kts | 261° |
| 2026-05-05 01:08 | 36.18692 | 13.59128 | 32100 ft | 444 kts | 261° |
| 2026-05-05 01:09 | 36.17473 | 13.51694 | 32104 ft | 445 kts | 261° |
| 2026-05-05 01:09 | 36.16241 | 13.44212 | 32097 ft | 443 kts | 261° |
| 2026-05-05 01:10 | 36.15006 | 13.36743 | 32098 ft | 443 kts | 261° |
| 2026-05-05 01:10 | 36.13772 | 13.29307 | 32103 ft | 445 kts | 260° |
| 2026-05-05 01:11 | 36.12526 | 13.21828 | 32101 ft | 444 kts | 260° |
| 2026-05-05 01:11 | 36.11277 | 13.14366 | 32100 ft | 443 kts | 260° |
| 2026-05-05 01:12 | 36.10024 | 13.06910 | 32095 ft | 444 kts | 260° |
| 2026-05-05 01:12 | 36.08772 | 12.99482 | 32093 ft | 443 kts | 260° |
| 2026-05-05 01:13 | 36.07513 | 12.92049 | 32091 ft | 444 kts | 260° |
| 2026-05-05 01:13 | 36.06239 | 12.84558 | 32090 ft | 444 kts | 260° |
| 2026-05-05 01:14 | 36.04977 | 12.77169 | 32089 ft | 443 kts | 260° |
| 2026-05-05 01:14 | 36.03697 | 12.69693 | 32089 ft | 443 kts | 260° |
| 2026-05-05 01:15 | 36.02425 | 12.62306 | 32089 ft | 443 kts | 260° |
| 2026-05-05 01:15 | 36.01144 | 12.54889 | 32085 ft | 442 kts | 260° |
| 2026-05-05 01:16 | 35.99858 | 12.47470 | 32087 ft | 442 kts | 260° |
| 2026-05-05 01:16 | 35.98573 | 12.40084 | 32092 ft | 443 kts | 260° |
| 2026-05-05 01:17 | 35.97273 | 12.32649 | 32093 ft | 443 kts | 259° |
| 2026-05-05 01:17 | 35.95974 | 12.25243 | 32093 ft | 443 kts | 259° |
| 2026-05-05 01:18 | 35.94671 | 12.17834 | 32093 ft | 443 kts | 259° |
| 2026-05-05 01:18 | 35.93367 | 12.10463 | 32089 ft | 442 kts | 259° |
| 2026-05-05 01:19 | 35.92058 | 12.03082 | 32089 ft | 441 kts | 259° |
| 2026-05-05 01:19 | 35.90746 | 11.95718 | 32090 ft | 441 kts | 259° |
| 2026-05-05 01:20 | 35.89428 | 11.88344 | 32090 ft | 441 kts | 259° |
| 2026-05-05 01:20 | 35.88104 | 11.80963 | 32081 ft | 441 kts | 259° |
| 2026-05-05 01:21 | 35.86781 | 11.73617 | 32077 ft | 441 kts | 259° |
| 2026-05-05 01:21 | 35.85446 | 11.66230 | 32078 ft | 442 kts | 259° |
| 2026-05-05 01:22 | 35.84111 | 11.58872 | 32069 ft | 441 kts | 259° |
| 2026-05-05 01:22 | 35.82776 | 11.51546 | 32069 ft | 441 kts | 259° |
| 2026-05-05 01:23 | 35.81925 | 11.44106 | 32074 ft | 439 kts | 265° |
| 2026-05-05 01:23 | 35.81268 | 11.36637 | 32056 ft | 441 kts | 265° |
| 2026-05-05 01:24 | 35.80589 | 11.29140 | 32063 ft | 440 kts | 264° |
| 2026-05-05 01:24 | 35.79908 | 11.21707 | 32060 ft | 439 kts | 264° |
| 2026-05-05 01:25 | 35.79219 | 11.14242 | 32061 ft | 440 kts | 264° |
| 2026-05-05 01:25 | 35.78521 | 11.06747 | 32056 ft | 440 kts | 264° |
| 2026-05-05 01:26 | 35.77824 | 10.99319 | 32057 ft | 440 kts | 264° |
| 2026-05-05 01:26 | 35.77120 | 10.91868 | 32051 ft | 440 kts | 264° |
| 2026-05-05 01:27 | 35.76406 | 10.84365 | 32057 ft | 440 kts | 264° |
| 2026-05-05 01:27 | 35.75589 | 10.76958 | 32049 ft | 441 kts | 257° |
| 2026-05-05 01:28 | 35.73275 | 10.69990 | 32063 ft | 444 kts | 245° |
| 2026-05-05 01:28 | 35.70420 | 10.63273 | 32052 ft | 443 kts | 244° |
| 2026-05-05 01:29 | 35.67535 | 10.56609 | 32053 ft | 443 kts | 244° |
| 2026-05-05 01:29 | 35.64610 | 10.49905 | 32051 ft | 443 kts | 244° |
| 2026-05-05 01:30 | 35.61714 | 10.43291 | 32047 ft | 443 kts | 244° |
| 2026-05-05 01:30 | 35.58782 | 10.36613 | 32047 ft | 443 kts | 244° |
| 2026-05-05 01:31 | 35.55856 | 10.29962 | 32054 ft | 444 kts | 244° |
| 2026-05-05 01:31 | 35.52919 | 10.23303 | 32051 ft | 444 kts | 244° |
| 2026-05-05 01:32 | 35.49994 | 10.16682 | 32054 ft | 445 kts | 244° |
| 2026-05-05 01:32 | 35.47041 | 10.10008 | 32054 ft | 444 kts | 244° |
| 2026-05-05 01:33 | 35.44112 | 10.03407 | 32053 ft | 443 kts | 244° |
| 2026-05-05 01:33 | 35.41162 | 9.96766 | 32052 ft | 443 kts | 244° |
| 2026-05-05 01:34 | 35.38224 | 9.90168 | 32056 ft | 443 kts | 244° |
| 2026-05-05 01:34 | 35.35277 | 9.83562 | 32057 ft | 442 kts | 244° |
| 2026-05-05 01:35 | 35.32339 | 9.76989 | 32058 ft | 442 kts | 244° |
| 2026-05-05 01:35 | 35.29374 | 9.70370 | 32058 ft | 443 kts | 244° |
| 2026-05-05 01:36 | 35.26426 | 9.63798 | 32061 ft | 442 kts | 243° |
| 2026-05-05 01:36 | 35.23473 | 9.57233 | 32061 ft | 442 kts | 244° |
| 2026-05-05 01:37 | 35.20519 | 9.50674 | 32066 ft | 442 kts | 243° |
| 2026-05-05 01:37 | 35.17565 | 9.44129 | 32065 ft | 441 kts | 243° |
| 2026-05-05 01:38 | 35.14585 | 9.37540 | 32067 ft | 442 kts | 243° |
| 2026-05-05 01:38 | 35.11616 | 9.30988 | 32081 ft | 443 kts | 243° |
| 2026-05-05 01:39 | 35.08635 | 9.24420 | 32081 ft | 442 kts | 243° |
| 2026-05-05 01:39 | 35.05666 | 9.17891 | 32083 ft | 442 kts | 243° |
| 2026-05-05 01:40 | 35.02692 | 9.11366 | 32085 ft | 441 kts | 243° |
| 2026-05-05 01:40 | 34.99707 | 9.04827 | 32093 ft | 442 kts | 243° |
| 2026-05-05 01:41 | 34.96720 | 8.98297 | 32103 ft | 442 kts | 243° |
| 2026-05-05 01:41 | 34.93724 | 8.91759 | 32099 ft | 441 kts | 243° |
| 2026-05-05 01:42 | 34.90738 | 8.85255 | 32102 ft | 441 kts | 243° |
| 2026-05-05 01:42 | 34.87748 | 8.78756 | 32102 ft | 441 kts | 243° |
| 2026-05-05 01:43 | 34.84743 | 8.72236 | 32105 ft | 442 kts | 243° |
| 2026-05-05 01:43 | 34.81739 | 8.65731 | 32101 ft | 442 kts | 243° |
| 2026-05-05 01:44 | 34.78728 | 8.59222 | 32094 ft | 442 kts | 243° |
| 2026-05-05 01:44 | 34.75808 | 8.52921 | 32098 ft | 442 kts | 243° |
| 2026-05-05 01:45 | 34.72784 | 8.46412 | 32090 ft | 442 kts | 243° |
| 2026-05-05 01:45 | 34.69765 | 8.39921 | 32090 ft | 443 kts | 243° |
| 2026-05-05 01:46 | 34.66735 | 8.33422 | 32093 ft | 443 kts | 242° |
| 2026-05-05 01:46 | 34.63714 | 8.26950 | 32097 ft | 443 kts | 242° |
| 2026-05-05 01:47 | 34.60671 | 8.20445 | 32101 ft | 443 kts | 242° |
| 2026-05-05 01:47 | 34.57622 | 8.13942 | 32090 ft | 443 kts | 242° |
| 2026-05-05 01:48 | 34.54601 | 8.07507 | 32090 ft | 443 kts | 242° |
| 2026-05-05 01:48 | 34.51546 | 8.01014 | 32093 ft | 443 kts | 242° |
| 2026-05-05 01:49 | 34.48509 | 7.94568 | 32082 ft | 443 kts | 242° |
| 2026-05-05 01:49 | 34.45451 | 7.88093 | 32061 ft | 443 kts | 242° |
| 2026-05-05 01:50 | 34.42400 | 7.81644 | 32063 ft | 443 kts | 242° |
| 2026-05-05 01:50 | 34.39346 | 7.75197 | 32051 ft | 444 kts | 242° |
| 2026-05-05 01:51 | 34.36263 | 7.68707 | 32033 ft | 443 kts | 242° |
| 2026-05-05 01:51 | 34.33187 | 7.62240 | 32016 ft | 443 kts | 242° |
| 2026-05-05 01:52 | 34.30138 | 7.55842 | 32007 ft | 444 kts | 242° |
| 2026-05-05 01:52 | 34.27058 | 7.49392 | 32002 ft | 443 kts | 242° |
| 2026-05-05 01:53 | 34.23988 | 7.42970 | 31990 ft | 443 kts | 242° |
| 2026-05-05 01:53 | 34.20886 | 7.36499 | 31993 ft | 443 kts | 242° |
| 2026-05-05 01:54 | 34.17807 | 7.30085 | 31989 ft | 444 kts | 241° |
| 2026-05-05 01:54 | 34.14719 | 7.23663 | 31988 ft | 444 kts | 242° |
| 2026-05-05 01:55 | 34.11619 | 7.17227 | 31983 ft | 444 kts | 241° |
| 2026-05-05 01:55 | 34.08518 | 7.10804 | 31970 ft | 444 kts | 241° |
| 2026-05-05 01:56 | 34.05428 | 7.04415 | 31973 ft | 443 kts | 241° |
| 2026-05-05 01:56 | 34.02313 | 6.97983 | 31973 ft | 444 kts | 241° |
| 2026-05-05 01:57 | 33.99207 | 6.91584 | 31965 ft | 444 kts | 242° |
| 2026-05-05 01:57 | 33.96089 | 6.85170 | 31961 ft | 444 kts | 242° |
| 2026-05-05 01:58 | 33.92978 | 6.78781 | 31959 ft | 444 kts | 242° |
| 2026-05-05 01:58 | 33.89841 | 6.72352 | 31962 ft | 444 kts | 242° |
| 2026-05-05 01:59 | 33.86731 | 6.65988 | 31957 ft | 444 kts | 242° |
| 2026-05-05 01:59 | 33.83599 | 6.59594 | 31951 ft | 444 kts | 242° |
| 2026-05-05 02:00 | 33.80471 | 6.53216 | 31957 ft | 443 kts | 242° |
| 2026-05-05 02:00 | 33.77359 | 6.46884 | 31951 ft | 443 kts | 242° |
| 2026-05-05 02:01 | 33.74213 | 6.40492 | 31952 ft | 444 kts | 242° |
| 2026-05-05 02:01 | 33.71073 | 6.34124 | 31956 ft | 443 kts | 241° |
| 2026-05-05 02:02 | 33.67933 | 6.27769 | 31953 ft | 444 kts | 241° |
| 2026-05-05 02:02 | 33.64800 | 6.21439 | 31952 ft | 444 kts | 241° |
| 2026-05-05 02:03 | 33.61646 | 6.15078 | 31945 ft | 441 kts | 241° |
| 2026-05-05 02:03 | 33.58519 | 6.08780 | 31950 ft | 441 kts | 241° |
| 2026-05-05 02:04 | 33.55364 | 6.02439 | 31950 ft | 442 kts | 241° |
| 2026-05-05 02:04 | 33.52233 | 5.96155 | 31950 ft | 442 kts | 241° |
| 2026-05-05 02:05 | 33.49084 | 5.89849 | 31945 ft | 442 kts | 241° |
| 2026-05-05 02:05 | 33.45933 | 5.83547 | 31949 ft | 440 kts | 241° |
| 2026-05-05 02:06 | 33.42785 | 5.77266 | 31949 ft | 439 kts | 242° |
| 2026-05-05 02:06 | 33.39659 | 5.71038 | 31949 ft | 439 kts | 242° |
| 2026-05-05 02:07 | 33.36514 | 5.64778 | 31953 ft | 439 kts | 242° |
| 2026-05-05 02:07 | 33.33371 | 5.58539 | 31949 ft | 439 kts | 242° |
| 2026-05-05 02:08 | 33.30226 | 5.52302 | 31951 ft | 438 kts | 242° |
| 2026-05-05 02:08 | 33.27095 | 5.46108 | 31954 ft | 439 kts | 242° |
| 2026-05-05 02:09 | 33.23942 | 5.39878 | 31949 ft | 437 kts | 242° |
| 2026-05-05 02:09 | 33.20790 | 5.33661 | 31953 ft | 437 kts | 241° |
| 2026-05-05 02:10 | 33.17650 | 5.27477 | 31960 ft | 437 kts | 242° |
| 2026-05-05 02:10 | 33.14513 | 5.21314 | 31955 ft | 437 kts | 242° |
| 2026-05-05 02:11 | 33.11377 | 5.15159 | 31960 ft | 435 kts | 241° |
| 2026-05-05 02:11 | 33.08236 | 5.09007 | 31959 ft | 435 kts | 242° |
| 2026-05-05 02:12 | 33.03511 | 4.99768 | 31945 ft | 434 kts | 242° |
| 2026-05-05 02:13 | 33.00381 | 4.93662 | 31951 ft | 433 kts | 242° |
| 2026-05-05 02:13 | 32.97253 | 4.87571 | 31954 ft | 432 kts | 242° |
| 2026-05-05 02:14 | 32.94126 | 4.81489 | 31953 ft | 432 kts | 242° |
| 2026-05-05 02:14 | 32.90987 | 4.75396 | 31953 ft | 432 kts | 242° |
| 2026-05-05 02:15 | 32.87836 | 4.69291 | 31951 ft | 431 kts | 243° |
| 2026-05-05 02:15 | 32.84716 | 4.63252 | 31952 ft | 431 kts | 242° |
| 2026-05-05 02:16 | 32.81576 | 4.57186 | 31952 ft | 431 kts | 242° |
| 2026-05-05 02:16 | 32.78438 | 4.51136 | 31950 ft | 430 kts | 243° |
| 2026-05-05 02:17 | 32.75303 | 4.45098 | 31949 ft | 431 kts | 243° |
| 2026-05-05 02:17 | 32.72167 | 4.39070 | 31953 ft | 430 kts | 243° |
| 2026-05-05 02:18 | 32.69019 | 4.33031 | 31961 ft | 428 kts | 242° |
| 2026-05-05 02:18 | 32.65899 | 4.27051 | 31963 ft | 429 kts | 242° |
| 2026-05-05 02:19 | 32.62771 | 4.21071 | 31959 ft | 427 kts | 243° |
| 2026-05-05 02:19 | 32.59626 | 4.15061 | 31962 ft | 428 kts | 243° |
| 2026-05-05 02:20 | 32.56492 | 4.09088 | 31964 ft | 427 kts | 243° |
| 2026-05-05 02:20 | 32.53361 | 4.03125 | 31963 ft | 427 kts | 243° |
| 2026-05-05 02:21 | 32.50228 | 3.97169 | 31962 ft | 427 kts | 243° |
| 2026-05-05 02:21 | 32.47088 | 3.91212 | 31964 ft | 426 kts | 243° |
| 2026-05-05 02:22 | 32.43944 | 3.85254 | 31968 ft | 426 kts | 243° |
| 2026-05-05 02:22 | 32.40815 | 3.79336 | 31966 ft | 425 kts | 243° |
| 2026-05-05 02:23 | 32.37697 | 3.73445 | 31970 ft | 426 kts | 243° |
| 2026-05-05 02:23 | 32.34566 | 3.67543 | 31961 ft | 424 kts | 243° |
| 2026-05-05 02:24 | 32.31432 | 3.61640 | 31965 ft | 423 kts | 243° |
| 2026-05-05 02:24 | 32.28289 | 3.55733 | 31968 ft | 424 kts | 243° |
| 2026-05-05 02:25 | 32.25148 | 3.49837 | 31964 ft | 425 kts | 243° |
| 2026-05-05 02:25 | 32.22028 | 3.43993 | 31955 ft | 423 kts | 243° |
| 2026-05-05 02:26 | 32.18903 | 3.38143 | 31957 ft | 423 kts | 243° |
| 2026-05-05 02:26 | 32.15753 | 3.32259 | 31970 ft | 423 kts | 242° |
| 2026-05-05 02:27 | 32.12612 | 3.26399 | 31965 ft | 423 kts | 242° |
| 2026-05-05 02:27 | 32.09475 | 3.20558 | 31963 ft | 421 kts | 243° |
| 2026-05-05 02:28 | 32.06330 | 3.14710 | 31961 ft | 423 kts | 242° |
| 2026-05-05 02:28 | 32.03183 | 3.08867 | 31957 ft | 422 kts | 242° |
| 2026-05-05 02:29 | 32.00056 | 3.03070 | 31957 ft | 420 kts | 242° |
| 2026-05-05 02:29 | 31.96927 | 2.97277 | 31954 ft | 421 kts | 242° |
| 2026-05-05 02:30 | 31.93801 | 2.91501 | 31952 ft | 421 kts | 243° |
| 2026-05-05 02:30 | 31.90644 | 2.85675 | 31950 ft | 420 kts | 242° |
| 2026-05-05 02:31 | 31.87519 | 2.79918 | 31943 ft | 419 kts | 243° |
| 2026-05-05 02:31 | 31.84389 | 2.74158 | 31932 ft | 420 kts | 242° |
| 2026-05-05 02:32 | 31.81237 | 2.68368 | 31922 ft | 419 kts | 243° |
| 2026-05-05 02:32 | 31.78102 | 2.62616 | 31920 ft | 420 kts | 242° |
| 2026-05-05 02:33 | 31.74948 | 2.56841 | 31914 ft | 420 kts | 243° |
| 2026-05-05 02:33 | 31.71795 | 2.51074 | 31906 ft | 420 kts | 243° |
| 2026-05-05 02:34 | 31.68640 | 2.45314 | 31903 ft | 420 kts | 242° |
| 2026-05-05 02:34 | 31.65499 | 2.39589 | 31906 ft | 419 kts | 243° |
| 2026-05-05 02:35 | 31.62336 | 2.33829 | 31915 ft | 420 kts | 242° |
| 2026-05-05 02:35 | 31.59158 | 2.28051 | 31923 ft | 421 kts | 242° |
| 2026-05-05 02:36 | 31.56004 | 2.22327 | 31926 ft | 419 kts | 242° |
| 2026-05-05 02:36 | 31.52841 | 2.16594 | 31920 ft | 419 kts | 242° |
| 2026-05-05 02:37 | 31.49696 | 2.10903 | 31914 ft | 420 kts | 242° |
| 2026-05-05 02:37 | 31.46515 | 2.05154 | 31914 ft | 419 kts | 242° |
| 2026-05-05 02:38 | 31.43357 | 1.99457 | 31915 ft | 420 kts | 242° |
| 2026-05-05 02:38 | 31.40187 | 1.93745 | 31913 ft | 419 kts | 242° |
| 2026-05-05 02:39 | 31.37001 | 1.88013 | 31908 ft | 419 kts | 242° |
| 2026-05-05 02:39 | 31.33824 | 1.82305 | 31908 ft | 420 kts | 242° |
| 2026-05-05 02:40 | 31.30637 | 1.76589 | 31903 ft | 419 kts | 242° |
| 2026-05-05 02:40 | 31.27478 | 1.70932 | 31893 ft | 419 kts | 242° |
| 2026-05-05 02:41 | 31.24290 | 1.65230 | 31887 ft | 419 kts | 242° |
| 2026-05-05 02:41 | 31.21094 | 1.59521 | 31884 ft | 420 kts | 242° |
| 2026-05-05 02:42 | 31.17895 | 1.53817 | 31883 ft | 419 kts | 242° |
| 2026-05-05 02:42 | 31.14731 | 1.48184 | 31882 ft | 419 kts | 242° |
| 2026-05-05 02:43 | 31.11532 | 1.42495 | 31877 ft | 419 kts | 242° |
| 2026-05-05 02:43 | 31.08330 | 1.36809 | 31875 ft | 418 kts | 242° |
| 2026-05-05 02:44 | 31.05156 | 1.31181 | 31889 ft | 420 kts | 241° |
| 2026-05-05 02:44 | 31.01926 | 1.25462 | 31900 ft | 421 kts | 241° |
| 2026-05-05 02:45 | 30.98711 | 1.19780 | 31902 ft | 422 kts | 241° |
| 2026-05-05 02:45 | 30.95481 | 1.14077 | 31899 ft | 420 kts | 241° |
| 2026-05-05 02:46 | 30.92267 | 1.08412 | 31896 ft | 421 kts | 241° |
| 2026-05-05 02:46 | 30.89047 | 1.02745 | 31892 ft | 420 kts | 241° |
| 2026-05-05 02:47 | 30.85834 | 0.97098 | 31893 ft | 419 kts | 241° |
| 2026-05-05 02:47 | 30.82625 | 0.91465 | 31883 ft | 419 kts | 241° |
| 2026-05-05 02:48 | 30.79407 | 0.85825 | 31877 ft | 420 kts | 241° |
| 2026-05-05 02:48 | 30.76182 | 0.80181 | 31873 ft | 420 kts | 241° |
| 2026-05-05 02:49 | 30.72953 | 0.74538 | 31867 ft | 419 kts | 241° |
| 2026-05-05 02:49 | 30.69739 | 0.68929 | 31863 ft | 418 kts | 241° |
| 2026-05-05 02:50 | 30.66508 | 0.63298 | 31865 ft | 418 kts | 241° |
| 2026-05-05 02:50 | 30.63281 | 0.57683 | 31865 ft | 420 kts | 241° |
| 2026-05-05 02:51 | 30.60045 | 0.52060 | 31861 ft | 418 kts | 240° |
| 2026-05-05 02:51 | 30.56824 | 0.46470 | 31860 ft | 419 kts | 241° |
| 2026-05-05 02:52 | 30.53572 | 0.40834 | 31859 ft | 419 kts | 241° |
| 2026-05-05 02:52 | 30.50341 | 0.35244 | 31855 ft | 418 kts | 241° |
| 2026-05-05 02:53 | 30.47115 | 0.29668 | 31866 ft | 418 kts | 240° |
| 2026-05-05 02:53 | 30.43862 | 0.24057 | 31864 ft | 419 kts | 240° |
| 2026-05-05 02:54 | 30.40619 | 0.18468 | 31859 ft | 420 kts | 240° |
| 2026-05-05 02:54 | 30.37358 | 0.12856 | 31860 ft | 419 kts | 240° |
| 2026-05-05 02:55 | 30.34125 | 0.07301 | 31852 ft | 419 kts | 240° |
| 2026-05-05 02:55 | 30.30860 | 0.01697 | 31849 ft | 419 kts | 240° |
| 2026-05-05 02:56 | 30.27624 | -0.03846 | 31843 ft | 418 kts | 240° |
| 2026-05-05 02:56 | 30.24367 | -0.09420 | 31832 ft | 419 kts | 240° |
| 2026-05-05 02:57 | 30.21116 | -0.14974 | 31826 ft | 418 kts | 240° |
| 2026-05-05 02:57 | 30.17833 | -0.20578 | 31832 ft | 419 kts | 240° |
| 2026-05-05 02:58 | 30.14582 | -0.26118 | 31828 ft | 420 kts | 240° |
| 2026-05-05 02:58 | 30.11305 | -0.31694 | 31826 ft | 419 kts | 240° |
| 2026-05-05 02:59 | 30.08053 | -0.37221 | 31823 ft | 418 kts | 240° |
| 2026-05-05 02:59 | 30.04790 | -0.42759 | 31822 ft | 419 kts | 240° |
| 2026-05-05 03:00 | 30.01497 | -0.48338 | 31828 ft | 419 kts | 240° |
| 2026-05-05 03:00 | 29.98243 | -0.53845 | 31837 ft | 418 kts | 240° |
| 2026-05-05 03:01 | 29.94952 | -0.59408 | 31839 ft | 418 kts | 240° |
| 2026-05-05 03:01 | 29.91693 | -0.64908 | 31839 ft | 419 kts | 240° |
| 2026-05-05 03:02 | 29.88388 | -0.70478 | 31850 ft | 418 kts | 240° |
| 2026-05-05 03:02 | 29.85127 | -0.75970 | 31852 ft | 417 kts | 239° |
| 2026-05-05 03:03 | 29.81850 | -0.81477 | 31850 ft | 418 kts | 239° |
| 2026-05-05 03:03 | 29.78569 | -0.86985 | 31847 ft | 417 kts | 239° |
| 2026-05-05 03:04 | 29.75298 | -0.92470 | 31851 ft | 417 kts | 239° |
| 2026-05-05 03:04 | 29.72027 | -0.97943 | 31850 ft | 416 kts | 239° |
| 2026-05-05 03:05 | 29.68738 | -1.03445 | 31853 ft | 418 kts | 239° |
| 2026-05-05 03:05 | 29.65447 | -1.08938 | 31853 ft | 417 kts | 239° |
| 2026-05-05 03:06 | 29.62154 | -1.14428 | 31847 ft | 416 kts | 239° |
| 2026-05-05 03:06 | 29.58894 | -1.19858 | 31844 ft | 417 kts | 239° |
| 2026-05-05 03:07 | 29.55595 | -1.25343 | 31846 ft | 417 kts | 239° |
| 2026-05-05 03:07 | 29.52309 | -1.30801 | 31835 ft | 417 kts | 239° |
| 2026-05-05 03:08 | 29.48995 | -1.36297 | 31831 ft | 417 kts | 239° |
| 2026-05-05 03:08 | 29.45703 | -1.41752 | 31829 ft | 418 kts | 239° |
| 2026-05-05 03:09 | 29.42394 | -1.47223 | 31830 ft | 418 kts | 239° |
| 2026-05-05 03:09 | 29.39099 | -1.52669 | 31833 ft | 418 kts | 239° |
| 2026-05-05 03:10 | 29.35783 | -1.58138 | 31831 ft | 419 kts | 239° |
| 2026-05-05 03:10 | 29.32465 | -1.63607 | 31827 ft | 418 kts | 239° |
| 2026-05-05 03:11 | 29.29121 | -1.69107 | 31852 ft | 421 kts | 238° |
| 2026-05-05 03:11 | 29.25802 | -1.74563 | 31847 ft | 418 kts | 238° |
| 2026-05-05 03:12 | 29.22463 | -1.80041 | 31847 ft | 420 kts | 238° |
| 2026-05-05 03:12 | 29.19124 | -1.85516 | 31838 ft | 421 kts | 238° |
| 2026-05-05 03:13 | 29.15791 | -1.90969 | 31832 ft | 419 kts | 238° |
| 2026-05-05 03:13 | 29.12458 | -1.96417 | 31833 ft | 420 kts | 239° |
| 2026-05-05 03:14 | 29.09099 | -2.01900 | 31828 ft | 421 kts | 238° |
| 2026-05-05 03:14 | 29.05770 | -2.07325 | 31827 ft | 419 kts | 239° |
| 2026-05-05 03:15 | 29.02426 | -2.12772 | 31838 ft | 418 kts | 238° |
| 2026-05-05 03:15 | 28.99093 | -2.18190 | 31842 ft | 418 kts | 238° |
| 2026-05-05 03:16 | 28.95744 | -2.23630 | 31853 ft | 420 kts | 238° |
| 2026-05-05 03:16 | 28.92386 | -2.29078 | 31849 ft | 420 kts | 238° |
| 2026-05-05 03:17 | 28.89027 | -2.34518 | 31854 ft | 418 kts | 238° |
| 2026-05-05 03:17 | 28.85677 | -2.39935 | 31845 ft | 418 kts | 238° |
| 2026-05-05 03:18 | 28.82332 | -2.45341 | 31847 ft | 419 kts | 238° |
| 2026-05-05 03:18 | 28.78964 | -2.50774 | 31837 ft | 418 kts | 239° |
| 2026-05-05 03:19 | 28.73936 | -2.58875 | 31835 ft | 418 kts | 238° |
| 2026-05-05 03:19 | 28.70588 | -2.64261 | 31834 ft | 417 kts | 238° |
| 2026-05-05 03:20 | 28.67247 | -2.69628 | 31849 ft | 418 kts | 238° |
| 2026-05-05 03:20 | 28.63884 | -2.75022 | 31853 ft | 416 kts | 238° |
| 2026-05-05 03:21 | 28.60554 | -2.80357 | 31851 ft | 416 kts | 238° |
| 2026-05-05 03:21 | 28.57187 | -2.85744 | 31852 ft | 416 kts | 238° |
| 2026-05-05 03:22 | 28.53854 | -2.91072 | 31859 ft | 416 kts | 238° |
| 2026-05-05 03:22 | 28.50481 | -2.96456 | 31859 ft | 417 kts | 238° |
| 2026-05-05 03:23 | 28.47143 | -3.01776 | 31854 ft | 416 kts | 238° |
| 2026-05-05 03:23 | 28.43789 | -3.07117 | 31856 ft | 415 kts | 238° |
| 2026-05-05 03:24 | 28.40433 | -3.12453 | 31858 ft | 417 kts | 238° |
| 2026-05-05 03:24 | 28.37066 | -3.17800 | 31864 ft | 415 kts | 238° |
| 2026-05-05 03:25 | 28.33715 | -3.23115 | 31855 ft | 415 kts | 238° |
| 2026-05-05 03:25 | 28.30347 | -3.28451 | 31863 ft | 415 kts | 238° |
| 2026-05-05 03:26 | 28.27004 | -3.33739 | 31863 ft | 414 kts | 238° |
| 2026-05-05 03:26 | 28.23644 | -3.39050 | 31865 ft | 415 kts | 238° |
| 2026-05-05 03:27 | 28.20271 | -3.44373 | 31859 ft | 415 kts | 238° |
| 2026-05-05 03:27 | 28.16914 | -3.49666 | 31857 ft | 415 kts | 238° |
| 2026-05-05 03:28 | 28.13543 | -3.54972 | 31855 ft | 415 kts | 238° |
| 2026-05-05 03:28 | 28.10183 | -3.60257 | 31843 ft | 415 kts | 238° |
| 2026-05-05 03:29 | 28.06790 | -3.65584 | 31851 ft | 415 kts | 237° |
| 2026-05-05 03:29 | 28.03415 | -3.70879 | 31860 ft | 415 kts | 238° |
| 2026-05-05 03:30 | 28.00040 | -3.76165 | 31863 ft | 416 kts | 237° |
| 2026-05-05 03:30 | 27.96663 | -3.81451 | 31858 ft | 415 kts | 237° |
| 2026-05-05 03:31 | 27.93266 | -3.86759 | 31862 ft | 415 kts | 238° |
| 2026-05-05 03:31 | 27.89893 | -3.92023 | 31859 ft | 414 kts | 238° |
| 2026-05-05 03:32 | 27.86520 | -3.97282 | 31858 ft | 414 kts | 238° |
| 2026-05-05 03:32 | 27.83150 | -4.02530 | 31863 ft | 413 kts | 237° |
| 2026-05-05 03:33 | 27.79777 | -4.07776 | 31875 ft | 412 kts | 238° |
| 2026-05-05 03:33 | 27.76414 | -4.12999 | 31875 ft | 413 kts | 238° |
| 2026-05-05 03:34 | 27.73033 | -4.18246 | 31891 ft | 413 kts | 238° |
| 2026-05-05 03:34 | 27.69670 | -4.23456 | 31902 ft | 413 kts | 237° |
| 2026-05-05 03:35 | 27.66295 | -4.28680 | 31898 ft | 413 kts | 237° |
| 2026-05-05 03:35 | 27.62910 | -4.33913 | 31903 ft | 412 kts | 237° |
| 2026-05-05 03:36 | 27.59521 | -4.39147 | 31902 ft | 414 kts | 237° |
| 2026-05-05 03:36 | 27.56144 | -4.44355 | 31907 ft | 412 kts | 237° |
| 2026-05-05 03:37 | 27.52743 | -4.49594 | 31909 ft | 413 kts | 237° |
| 2026-05-05 03:37 | 27.49374 | -4.54777 | 31910 ft | 412 kts | 237° |
| 2026-05-05 03:38 | 27.45970 | -4.60007 | 31901 ft | 413 kts | 237° |
| 2026-05-05 03:38 | 27.42601 | -4.65180 | 31905 ft | 413 kts | 237° |
| 2026-05-05 03:39 | 27.39179 | -4.70423 | 31919 ft | 414 kts | 237° |
| 2026-05-05 03:39 | 27.35772 | -4.75641 | 31927 ft | 413 kts | 237° |
| 2026-05-05 03:40 | 27.32392 | -4.80812 | 31917 ft | 413 kts | 237° |
| 2026-05-05 03:40 | 27.28974 | -4.86032 | 31918 ft | 414 kts | 237° |
| 2026-05-05 03:41 | 27.25559 | -4.91243 | 31910 ft | 414 kts | 237° |
| 2026-05-05 03:41 | 27.22167 | -4.96414 | 31907 ft | 413 kts | 237° |
| 2026-05-05 03:42 | 27.18762 | -5.01597 | 31909 ft | 413 kts | 237° |
| 2026-05-05 03:42 | 27.15404 | -5.06705 | 31914 ft | 413 kts | 237° |
| 2026-05-05 03:43 | 27.11997 | -5.11877 | 31913 ft | 413 kts | 237° |
| 2026-05-05 03:43 | 27.08580 | -5.17061 | 31918 ft | 413 kts | 237° |
| 2026-05-05 03:44 | 27.05162 | -5.22240 | 31921 ft | 414 kts | 237° |
| 2026-05-05 03:44 | 27.01752 | -5.27400 | 31922 ft | 413 kts | 237° |
| 2026-05-05 03:45 | 26.98339 | -5.32561 | 31921 ft | 414 kts | 237° |
| 2026-05-05 03:45 | 26.94911 | -5.37737 | 31923 ft | 413 kts | 237° |
| 2026-05-05 03:46 | 26.91480 | -5.42911 | 31921 ft | 413 kts | 237° |
| 2026-05-05 03:46 | 26.88070 | -5.48049 | 31926 ft | 413 kts | 237° |
| 2026-05-05 03:47 | 26.84627 | -5.53229 | 31927 ft | 413 kts | 236° |
| 2026-05-05 03:47 | 26.81203 | -5.58375 | 31935 ft | 413 kts | 236° |
| 2026-05-05 03:48 | 26.77801 | -5.63484 | 31934 ft | 411 kts | 236° |
| 2026-05-05 03:48 | 26.74366 | -5.68634 | 31950 ft | 413 kts | 236° |
| 2026-05-05 03:49 | 26.70931 | -5.73778 | 31943 ft | 411 kts | 236° |
| 2026-05-05 03:49 | 26.67504 | -5.78906 | 31947 ft | 412 kts | 236° |
| 2026-05-05 03:50 | 26.64077 | -5.84027 | 31943 ft | 412 kts | 236° |
| 2026-05-05 03:50 | 26.60668 | -5.89116 | 31947 ft | 412 kts | 236° |
| 2026-05-05 03:51 | 26.57228 | -5.94246 | 31946 ft | 412 kts | 236° |
| 2026-05-05 03:51 | 26.53798 | -5.99353 | 31948 ft | 411 kts | 236° |
| 2026-05-05 03:52 | 26.50370 | -6.04453 | 31953 ft | 411 kts | 236° |
| 2026-05-05 03:52 | 26.46943 | -6.09546 | 31952 ft | 410 kts | 236° |
| 2026-05-05 03:53 | 26.43527 | -6.14617 | 31964 ft | 412 kts | 236° |
| 2026-05-05 03:53 | 26.40077 | -6.19732 | 31960 ft | 412 kts | 236° |
| 2026-05-05 03:54 | 26.36657 | -6.24797 | 31966 ft | 412 kts | 236° |
| 2026-05-05 03:54 | 26.33198 | -6.29915 | 31960 ft | 411 kts | 236° |
| 2026-05-05 03:55 | 26.29752 | -6.35007 | 31961 ft | 413 kts | 236° |
| 2026-05-05 03:55 | 26.26310 | -6.40087 | 31960 ft | 412 kts | 236° |
| 2026-05-05 03:56 | 26.22844 | -6.45198 | 31961 ft | 412 kts | 236° |
| 2026-05-05 03:56 | 26.19397 | -6.50274 | 31959 ft | 412 kts | 236° |
| 2026-05-05 03:57 | 26.15959 | -6.55332 | 31956 ft | 412 kts | 236° |
| 2026-05-05 03:57 | 26.12483 | -6.60398 | 31950 ft | 412 kts | 233° |
| 2026-05-05 03:58 | 26.08705 | -6.65188 | 31955 ft | 414 kts | 231° |
| 2026-05-05 03:58 | 26.04867 | -6.69958 | 31985 ft | 414 kts | 231° |
| 2026-05-05 03:59 | 26.00993 | -6.74730 | 31986 ft | 413 kts | 231° |
| 2026-05-05 03:59 | 25.97150 | -6.79444 | 31991 ft | 415 kts | 231° |
| 2026-05-05 04:00 | 25.93254 | -6.84215 | 31988 ft | 414 kts | 231° |
| 2026-05-05 04:00 | 25.89393 | -6.88936 | 31989 ft | 414 kts | 231° |
| 2026-05-05 04:01 | 25.85542 | -6.93640 | 31986 ft | 414 kts | 231° |
| 2026-05-05 04:01 | 25.81682 | -6.98348 | 31987 ft | 414 kts | 231° |
| 2026-05-05 04:02 | 25.77797 | -7.03081 | 31988 ft | 414 kts | 231° |
| 2026-05-05 04:02 | 25.73924 | -7.07796 | 31986 ft | 414 kts | 231° |
| 2026-05-05 04:03 | 25.70053 | -7.12503 | 31980 ft | 415 kts | 231° |
| 2026-05-05 04:03 | 25.66166 | -7.17225 | 31978 ft | 416 kts | 231° |
| 2026-05-05 04:04 | 25.62255 | -7.21970 | 31976 ft | 416 kts | 231° |
| 2026-05-05 04:04 | 25.58353 | -7.26702 | 31978 ft | 416 kts | 231° |
| 2026-05-05 04:05 | 25.54468 | -7.31407 | 31970 ft | 415 kts | 231° |
| 2026-05-05 04:05 | 25.50584 | -7.36108 | 31970 ft | 415 kts | 231° |
| 2026-05-05 04:06 | 25.46666 | -7.40845 | 31963 ft | 415 kts | 231° |
| 2026-05-05 04:06 | 25.42783 | -7.45536 | 31961 ft | 417 kts | 231° |
| 2026-05-05 04:07 | 25.38875 | -7.50251 | 31952 ft | 416 kts | 231° |
| 2026-05-05 04:07 | 25.34950 | -7.54982 | 31953 ft | 416 kts | 231° |
| 2026-05-05 04:08 | 25.31040 | -7.59691 | 31949 ft | 416 kts | 231° |
| 2026-05-05 04:08 | 25.27131 | -7.64392 | 31949 ft | 417 kts | 231° |
| 2026-05-05 04:09 | 25.23203 | -7.69114 | 31962 ft | 417 kts | 230° |
| 2026-05-05 04:09 | 25.19274 | -7.73830 | 31963 ft | 417 kts | 231° |
| 2026-05-05 04:10 | 25.15377 | -7.78501 | 31962 ft | 417 kts | 231° |
| 2026-05-05 04:10 | 25.11454 | -7.83200 | 31961 ft | 416 kts | 231° |
| 2026-05-05 04:11 | 25.07533 | -7.87889 | 31965 ft | 416 kts | 231° |
| 2026-05-05 04:11 | 25.03594 | -7.92596 | 31963 ft | 416 kts | 231° |
| 2026-05-05 04:12 | 24.99680 | -7.97268 | 31958 ft | 416 kts | 231° |
| 2026-05-05 04:12 | 24.95732 | -8.01976 | 31958 ft | 416 kts | 231° |
| 2026-05-05 04:13 | 24.91828 | -8.06627 | 31956 ft | 416 kts | 231° |
| 2026-05-05 04:13 | 24.87875 | -8.11332 | 31961 ft | 416 kts | 231° |
| 2026-05-05 04:14 | 24.83955 | -8.15992 | 31959 ft | 417 kts | 231° |
| 2026-05-05 04:14 | 24.80010 | -8.20677 | 31955 ft | 416 kts | 231° |
| 2026-05-05 04:15 | 24.76082 | -8.25339 | 31962 ft | 418 kts | 231° |
| 2026-05-05 04:15 | 24.72112 | -8.30043 | 31965 ft | 418 kts | 230° |
| 2026-05-05 04:16 | 24.68173 | -8.34707 | 31965 ft | 417 kts | 231° |
| 2026-05-05 04:16 | 24.64221 | -8.39383 | 31960 ft | 418 kts | 230° |
| 2026-05-05 04:17 | 24.60257 | -8.44067 | 31955 ft | 417 kts | 231° |
| 2026-05-05 04:17 | 24.56306 | -8.48732 | 31954 ft | 418 kts | 231° |
| 2026-05-05 04:18 | 24.52346 | -8.53403 | 31948 ft | 417 kts | 230° |
| 2026-05-05 04:18 | 24.48399 | -8.58052 | 31942 ft | 417 kts | 231° |
| 2026-05-05 04:19 | 24.44438 | -8.62716 | 31938 ft | 419 kts | 230° |
| 2026-05-05 04:19 | 24.40862 | -8.66920 | 31948 ft | 418 kts | 230° |
| 2026-05-05 04:20 | 24.36886 | -8.71591 | 31945 ft | 418 kts | 230° |
| 2026-05-05 04:20 | 24.32923 | -8.76242 | 31942 ft | 418 kts | 230° |
| 2026-05-05 04:21 | 24.28948 | -8.80903 | 31938 ft | 418 kts | 230° |
| 2026-05-05 04:21 | 24.24976 | -8.85556 | 31932 ft | 418 kts | 230° |
| 2026-05-05 04:22 | 24.20998 | -8.90211 | 31926 ft | 418 kts | 230° |
| 2026-05-05 04:22 | 24.17035 | -8.94844 | 31924 ft | 417 kts | 230° |
| 2026-05-05 04:23 | 24.13085 | -8.99456 | 31922 ft | 416 kts | 230° |
| 2026-05-05 04:23 | 24.09137 | -9.04062 | 31924 ft | 416 kts | 230° |
| 2026-05-05 04:24 | 24.05160 | -9.08697 | 31919 ft | 417 kts | 230° |
| 2026-05-05 04:25 | 23.99206 | -9.15628 | 31921 ft | 417 kts | 230° |
| 2026-05-05 04:25 | 23.95248 | -9.20231 | 31915 ft | 416 kts | 230° |
| 2026-05-05 04:26 | 23.91281 | -9.24838 | 31918 ft | 417 kts | 230° |
| 2026-05-05 04:26 | 23.87308 | -9.29449 | 31922 ft | 417 kts | 230° |
| 2026-05-05 04:27 | 23.83307 | -9.34088 | 31927 ft | 418 kts | 230° |
| 2026-05-05 04:27 | 23.79330 | -9.38695 | 31926 ft | 417 kts | 230° |
| 2026-05-05 04:28 | 23.75336 | -9.43316 | 31922 ft | 418 kts | 230° |
| 2026-05-05 04:28 | 23.71350 | -9.47924 | 31922 ft | 418 kts | 230° |
| 2026-05-05 04:29 | 23.67350 | -9.52545 | 31922 ft | 419 kts | 230° |
| 2026-05-05 04:29 | 23.63370 | -9.57137 | 31922 ft | 418 kts | 230° |
| 2026-05-05 04:30 | 23.59366 | -9.61753 | 31918 ft | 419 kts | 230° |
| 2026-05-05 04:30 | 23.55338 | -9.66391 | 31929 ft | 419 kts | 230° |
| 2026-05-05 04:31 | 23.51332 | -9.71001 | 31932 ft | 420 kts | 229° |
| 2026-05-05 04:31 | 23.47315 | -9.75618 | 31928 ft | 422 kts | 230° |
| 2026-05-05 04:32 | 23.43277 | -9.80255 | 31932 ft | 422 kts | 229° |
| 2026-05-05 04:32 | 23.39261 | -9.84863 | 31932 ft | 421 kts | 230° |
| 2026-05-05 04:33 | 23.35229 | -9.89485 | 31928 ft | 421 kts | 229° |
| 2026-05-05 04:33 | 23.31187 | -9.94114 | 31924 ft | 422 kts | 229° |
| 2026-05-05 04:34 | 23.27158 | -9.98722 | 31920 ft | 421 kts | 229° |
| 2026-05-05 04:34 | 23.23106 | -10.03353 | 31917 ft | 421 kts | 229° |
| 2026-05-05 04:35 | 23.19083 | -10.07947 | 31921 ft | 421 kts | 230° |
| 2026-05-05 04:35 | 23.15058 | -10.12540 | 31918 ft | 420 kts | 229° |
| 2026-05-05 04:36 | 23.11006 | -10.17158 | 31921 ft | 421 kts | 229° |
| 2026-05-05 04:36 | 23.06972 | -10.21751 | 31934 ft | 423 kts | 229° |
| 2026-05-05 04:37 | 23.02922 | -10.26359 | 31935 ft | 421 kts | 229° |
| 2026-05-05 04:37 | 22.98870 | -10.30963 | 31938 ft | 421 kts | 229° |
| 2026-05-05 04:38 | 22.94816 | -10.35568 | 31939 ft | 423 kts | 229° |
| 2026-05-05 04:38 | 22.90762 | -10.40168 | 31935 ft | 421 kts | 229° |
| 2026-05-05 04:39 | 22.86722 | -10.44746 | 31937 ft | 421 kts | 229° |
| 2026-05-05 04:39 | 22.82655 | -10.49351 | 31939 ft | 423 kts | 229° |
| 2026-05-05 04:40 | 22.78620 | -10.53915 | 31931 ft | 421 kts | 229° |
| 2026-05-05 04:40 | 22.74548 | -10.58519 | 31934 ft | 423 kts | 229° |
| 2026-05-05 04:41 | 22.70478 | -10.63114 | 31932 ft | 422 kts | 229° |
| 2026-05-05 04:41 | 22.66393 | -10.67722 | 31946 ft | 422 kts | 229° |
| 2026-05-05 04:42 | 22.62335 | -10.72295 | 31939 ft | 422 kts | 229° |
| 2026-05-05 04:42 | 22.58268 | -10.76874 | 31939 ft | 422 kts | 229° |
| 2026-05-05 04:43 | 22.54198 | -10.81455 | 31941 ft | 422 kts | 229° |
| 2026-05-05 04:43 | 22.50134 | -10.86022 | 31944 ft | 421 kts | 229° |
| 2026-05-05 04:44 | 22.46079 | -10.90576 | 31942 ft | 422 kts | 229° |
| 2026-05-05 04:44 | 22.41996 | -10.95156 | 31938 ft | 422 kts | 229° |
| 2026-05-05 04:45 | 22.37922 | -10.99724 | 31935 ft | 422 kts | 229° |
| 2026-05-05 04:45 | 22.33853 | -11.04281 | 31939 ft | 422 kts | 229° |
| 2026-05-05 04:46 | 22.29764 | -11.08855 | 31932 ft | 420 kts | 229° |
| 2026-05-05 04:46 | 22.25714 | -11.13384 | 31923 ft | 421 kts | 229° |
| 2026-05-05 04:47 | 22.21635 | -11.17940 | 31921 ft | 421 kts | 229° |
| 2026-05-05 04:47 | 22.17570 | -11.22475 | 31923 ft | 420 kts | 229° |
| 2026-05-05 04:48 | 22.13508 | -11.27006 | 31921 ft | 421 kts | 229° |
| 2026-05-05 04:48 | 22.09446 | -11.31530 | 31921 ft | 422 kts | 229° |
| 2026-05-05 04:49 | 22.05363 | -11.36075 | 31924 ft | 422 kts | 229° |
| 2026-05-05 04:49 | 22.01283 | -11.40612 | 31925 ft | 423 kts | 229° |
| 2026-05-05 04:50 | 21.97194 | -11.45155 | 31925 ft | 422 kts | 229° |
| 2026-05-05 04:50 | 21.93115 | -11.49683 | 31922 ft | 421 kts | 229° |
| 2026-05-05 04:51 | 21.89022 | -11.54222 | 31931 ft | 421 kts | 229° |
| 2026-05-05 04:51 | 21.84924 | -11.58763 | 31946 ft | 422 kts | 229° |
| 2026-05-05 04:52 | 21.80858 | -11.63265 | 31947 ft | 421 kts | 229° |
| 2026-05-05 04:52 | 21.76782 | -11.67773 | 31962 ft | 421 kts | 229° |
| 2026-05-05 04:53 | 21.72700 | -11.72286 | 31961 ft | 420 kts | 229° |
| 2026-05-05 04:53 | 21.68642 | -11.76766 | 31960 ft | 421 kts | 229° |
| 2026-05-05 04:54 | 21.64550 | -11.81284 | 31960 ft | 423 kts | 228° |
| 2026-05-05 04:54 | 21.60436 | -11.85816 | 31958 ft | 420 kts | 228° |
| 2026-05-05 04:55 | 21.56368 | -11.90298 | 31957 ft | 420 kts | 229° |
| 2026-05-05 04:55 | 21.52283 | -11.94813 | 31947 ft | 422 kts | 229° |
| 2026-05-05 04:56 | 21.48214 | -11.99307 | 31934 ft | 421 kts | 229° |
| 2026-05-05 04:56 | 21.44135 | -12.03808 | 31928 ft | 421 kts | 229° |
| 2026-05-05 04:57 | 21.40036 | -12.08328 | 31933 ft | 422 kts | 228° |
| 2026-05-05 04:57 | 21.35961 | -12.12815 | 31924 ft | 421 kts | 229° |
| 2026-05-05 04:58 | 21.31862 | -12.17330 | 31925 ft | 421 kts | 229° |
| 2026-05-05 04:58 | 21.27777 | -12.21820 | 31926 ft | 421 kts | 229° |
| 2026-05-05 04:59 | 21.23690 | -12.26311 | 31924 ft | 422 kts | 229° |
| 2026-05-05 04:59 | 21.19590 | -12.30812 | 31919 ft | 423 kts | 229° |
| 2026-05-05 05:00 | 21.15454 | -12.35348 | 31913 ft | 423 kts | 228° |
| 2026-05-05 05:00 | 21.11360 | -12.39835 | 31914 ft | 421 kts | 229° |
| 2026-05-05 05:01 | 21.07288 | -12.44295 | 31908 ft | 422 kts | 228° |
| 2026-05-05 05:01 | 21.03171 | -12.48800 | 31912 ft | 423 kts | 229° |
| 2026-05-05 05:02 | 20.99084 | -12.53267 | 31911 ft | 421 kts | 229° |
| 2026-05-05 05:02 | 20.94979 | -12.57753 | 31912 ft | 421 kts | 228° |
| 2026-05-05 05:03 | 20.90877 | -12.62228 | 31909 ft | 423 kts | 229° |
| 2026-05-05 05:03 | 20.86747 | -12.66733 | 31918 ft | 423 kts | 228° |
| 2026-05-05 05:04 | 20.82612 | -12.71237 | 31914 ft | 423 kts | 228° |
| 2026-05-05 05:04 | 20.78504 | -12.75710 | 31920 ft | 423 kts | 228° |
| 2026-05-05 05:05 | 20.74369 | -12.80207 | 31907 ft | 422 kts | 228° |
| 2026-05-05 05:05 | 20.70260 | -12.84675 | 31920 ft | 424 kts | 228° |
| 2026-05-05 05:06 | 20.66135 | -12.89153 | 31920 ft | 421 kts | 228° |
| 2026-05-05 05:06 | 20.62030 | -12.93608 | 31910 ft | 422 kts | 228° |
| 2026-05-05 05:07 | 20.57899 | -12.98088 | 31907 ft | 424 kts | 228° |
| 2026-05-05 05:07 | 20.53767 | -13.02562 | 31895 ft | 424 kts | 228° |
| 2026-05-05 05:08 | 20.49535 | -13.06931 | 31888 ft | 427 kts | 221° |
| 2026-05-05 05:08 | 20.44779 | -13.10723 | 31877 ft | 429 kts | 220° |
| 2026-05-05 05:09 | 20.39978 | -13.14517 | 31872 ft | 427 kts | 220° |
| 2026-05-05 05:09 | 20.35222 | -13.18259 | 31866 ft | 428 kts | 220° |
| 2026-05-05 05:10 | 20.30407 | -13.22041 | 31859 ft | 428 kts | 220° |
| 2026-05-05 05:10 | 20.25617 | -13.25798 | 31846 ft | 428 kts | 220° |
| 2026-05-05 05:11 | 20.20803 | -13.29571 | 31850 ft | 430 kts | 220° |
| 2026-05-05 05:11 | 20.16015 | -13.33318 | 31852 ft | 427 kts | 220° |
| 2026-05-05 05:12 | 20.11188 | -13.37097 | 31851 ft | 429 kts | 220° |
| 2026-05-05 05:12 | 20.06384 | -13.40852 | 31863 ft | 429 kts | 220° |
| 2026-05-05 05:13 | 20.01567 | -13.44615 | 31880 ft | 428 kts | 220° |
| 2026-05-05 05:13 | 19.96760 | -13.48366 | 31884 ft | 429 kts | 220° |
| 2026-05-05 05:14 | 19.91965 | -13.52107 | 31877 ft | 428 kts | 220° |
| 2026-05-05 05:14 | 19.87158 | -13.55854 | 31864 ft | 427 kts | 220° |
| 2026-05-05 05:15 | 19.82357 | -13.59593 | 31855 ft | 428 kts | 220° |
| 2026-05-05 05:15 | 19.77567 | -13.63319 | 31844 ft | 429 kts | 220° |
| 2026-05-05 05:16 | 19.72721 | -13.67088 | 31851 ft | 430 kts | 220° |
| 2026-05-05 05:16 | 19.67927 | -13.70814 | 31844 ft | 428 kts | 219° |
| 2026-05-05 05:17 | 19.63118 | -13.74546 | 31845 ft | 426 kts | 220° |
| 2026-05-05 05:17 | 19.58310 | -13.78278 | 31846 ft | 430 kts | 220° |
| 2026-05-05 05:18 | 19.53515 | -13.81995 | 31845 ft | 428 kts | 219° |
| 2026-05-05 05:18 | 19.48685 | -13.85736 | 31851 ft | 428 kts | 220° |
| 2026-05-05 05:19 | 19.43870 | -13.89462 | 31847 ft | 429 kts | 220° |
| 2026-05-05 05:19 | 19.39066 | -13.93179 | 31846 ft | 428 kts | 220° |
| 2026-05-05 05:20 | 19.34277 | -13.96880 | 31850 ft | 425 kts | 219° |
| 2026-05-05 05:20 | 19.29467 | -14.00595 | 31855 ft | 426 kts | 219° |
| 2026-05-05 05:21 | 19.24670 | -14.04297 | 31864 ft | 427 kts | 219° |
| 2026-05-05 05:21 | 19.19868 | -14.08000 | 31856 ft | 428 kts | 219° |
| 2026-05-05 05:22 | 19.15036 | -14.11724 | 31850 ft | 429 kts | 219° |
| 2026-05-05 05:22 | 19.10213 | -14.15438 | 31848 ft | 430 kts | 219° |
| 2026-05-05 05:23 | 19.05375 | -14.19160 | 31845 ft | 431 kts | 220° |
| 2026-05-05 05:23 | 19.00532 | -14.22884 | 31840 ft | 428 kts | 220° |
| 2026-05-05 05:24 | 18.95738 | -14.26567 | 31843 ft | 426 kts | 220° |
| 2026-05-05 05:24 | 18.90912 | -14.30273 | 31846 ft | 428 kts | 220° |
| 2026-05-05 05:25 | 18.86078 | -14.33982 | 31846 ft | 430 kts | 220° |
| 2026-05-05 05:25 | 18.81219 | -14.37706 | 31838 ft | 429 kts | 220° |
| 2026-05-05 05:26 | 18.76395 | -14.41402 | 31838 ft | 431 kts | 220° |
| 2026-05-05 05:26 | 18.71536 | -14.45123 | 31834 ft | 431 kts | 220° |
| 2026-05-05 05:27 | 18.66713 | -14.48812 | 31843 ft | 430 kts | 220° |
| 2026-05-05 05:27 | 18.59445 | -14.54367 | 31842 ft | 431 kts | 220° |
| 2026-05-05 05:28 | 18.54587 | -14.58077 | 31842 ft | 431 kts | 220° |
| 2026-05-05 05:28 | 18.49733 | -14.61781 | 31847 ft | 431 kts | 220° |
| 2026-05-05 05:29 | 18.44867 | -14.65492 | 31853 ft | 431 kts | 220° |
| 2026-05-05 05:29 | 18.40010 | -14.69193 | 31873 ft | 433 kts | 220° |
| 2026-05-05 05:30 | 18.35139 | -14.72902 | 31878 ft | 433 kts | 220° |
| 2026-05-05 05:30 | 18.30266 | -14.76608 | 31877 ft | 430 kts | 220° |
| 2026-05-05 05:31 | 18.25426 | -14.80289 | 31867 ft | 433 kts | 220° |
| 2026-05-05 05:31 | 18.20534 | -14.84006 | 31871 ft | 431 kts | 220° |
| 2026-05-05 05:32 | 18.15666 | -14.87702 | 31869 ft | 432 kts | 220° |
| 2026-05-05 05:32 | 18.10810 | -14.91387 | 31860 ft | 431 kts | 220° |
| 2026-05-05 05:33 | 18.05950 | -14.95071 | 31863 ft | 432 kts | 220° |
| 2026-05-05 05:33 | 18.01033 | -14.98797 | 31861 ft | 433 kts | 220° |
| 2026-05-05 05:34 | 17.96168 | -15.02481 | 31867 ft | 432 kts | 220° |
| 2026-05-05 05:34 | 17.91294 | -15.06169 | 31863 ft | 431 kts | 220° |
| 2026-05-05 05:35 | 17.86418 | -15.09856 | 31868 ft | 432 kts | 220° |
| 2026-05-05 05:35 | 17.81511 | -15.13565 | 31873 ft | 432 kts | 220° |
| 2026-05-05 05:36 | 17.76633 | -15.17253 | 31872 ft | 432 kts | 220° |
| 2026-05-05 05:36 | 17.71734 | -15.20954 | 31873 ft | 435 kts | 220° |
| 2026-05-05 05:37 | 17.66842 | -15.24648 | 31869 ft | 433 kts | 220° |
| 2026-05-05 05:37 | 17.61961 | -15.28332 | 31874 ft | 435 kts | 220° |
| 2026-05-05 05:38 | 17.57065 | -15.32029 | 31879 ft | 434 kts | 221° |
| 2026-05-05 05:38 | 17.52165 | -15.35726 | 31880 ft | 434 kts | 220° |
| 2026-05-05 05:39 | 17.47236 | -15.39442 | 31879 ft | 433 kts | 220° |
| 2026-05-05 05:39 | 17.42329 | -15.43139 | 31881 ft | 433 kts | 221° |
| 2026-05-05 05:40 | 17.37447 | -15.46816 | 31874 ft | 433 kts | 220° |
| 2026-05-05 05:40 | 17.32538 | -15.50509 | 31877 ft | 432 kts | 221° |
| 2026-05-05 05:41 | 17.27680 | -15.54163 | 31890 ft | 434 kts | 221° |
| 2026-05-05 05:41 | 17.22777 | -15.57846 | 31896 ft | 434 kts | 221° |
| 2026-05-05 05:42 | 17.17853 | -15.61544 | 31901 ft | 433 kts | 220° |
| 2026-05-05 05:42 | 17.12970 | -15.65208 | 31907 ft | 433 kts | 220° |
| 2026-05-05 05:43 | 17.08047 | -15.68901 | 31919 ft | 435 kts | 220° |
| 2026-05-05 05:43 | 17.03145 | -15.72577 | 31921 ft | 434 kts | 220° |
| 2026-05-05 05:44 | 16.98222 | -15.76264 | 31920 ft | 434 kts | 220° |
| 2026-05-05 05:44 | 16.93299 | -15.79948 | 31922 ft | 433 kts | 221° |
| 2026-05-05 05:45 | 16.88410 | -15.83606 | 31925 ft | 432 kts | 220° |
| 2026-05-05 05:45 | 16.83499 | -15.87279 | 31926 ft | 436 kts | 220° |
| 2026-05-05 05:46 | 16.78574 | -15.90958 | 31916 ft | 433 kts | 220° |
| 2026-05-05 05:46 | 16.73695 | -15.94601 | 31919 ft | 433 kts | 220° |
| 2026-05-05 05:47 | 16.68773 | -15.98274 | 31923 ft | 433 kts | 220° |
| 2026-05-05 05:47 | 16.63894 | -16.01911 | 31918 ft | 432 kts | 220° |
| 2026-05-05 05:48 | 16.59022 | -16.05541 | 31920 ft | 430 kts | 221° |
| 2026-05-05 05:48 | 16.54129 | -16.09186 | 31925 ft | 433 kts | 221° |
| 2026-05-05 05:49 | 16.49209 | -16.12847 | 31922 ft | 433 kts | 220° |
| 2026-05-05 05:49 | 16.44311 | -16.16488 | 31927 ft | 433 kts | 220° |
| 2026-05-05 05:50 | 16.39414 | -16.20125 | 31925 ft | 432 kts | 220° |
| 2026-05-05 05:50 | 16.34493 | -16.23779 | 31922 ft | 432 kts | 220° |
| 2026-05-05 05:51 | 16.29604 | -16.27405 | 31918 ft | 431 kts | 220° |
| 2026-05-05 05:51 | 16.24720 | -16.31026 | 31916 ft | 431 kts | 221° |
| 2026-05-05 05:52 | 16.19836 | -16.34645 | 31925 ft | 433 kts | 221° |
| 2026-05-05 05:52 | 16.14937 | -16.38272 | 31918 ft | 432 kts | 220° |
| 2026-05-05 05:53 | 16.10017 | -16.41915 | 31908 ft | 432 kts | 221° |
| 2026-05-05 05:53 | 16.05097 | -16.45554 | 31921 ft | 433 kts | 221° |
| 2026-05-05 05:54 | 16.00299 | -16.49313 | 31910 ft | 431 kts | 223° |
| 2026-05-05 05:54 | 15.95542 | -16.53054 | 31908 ft | 432 kts | 222° |
| 2026-05-05 05:55 | 15.90723 | -16.56838 | 31902 ft | 431 kts | 222° |
| 2026-05-05 05:55 | 15.85923 | -16.60608 | 31906 ft | 432 kts | 222° |
| 2026-05-05 05:56 | 15.81148 | -16.64354 | 31907 ft | 433 kts | 222° |
| 2026-05-05 05:56 | 15.76314 | -16.68144 | 31921 ft | 434 kts | 222° |
| 2026-05-05 05:57 | 15.71486 | -16.71927 | 31917 ft | 433 kts | 222° |
| 2026-05-05 05:57 | 15.66679 | -16.75691 | 31921 ft | 434 kts | 222° |
| 2026-05-05 05:58 | 15.61873 | -16.79452 | 31928 ft | 435 kts | 222° |
| 2026-05-05 05:58 | 15.57025 | -16.83244 | 31942 ft | 433 kts | 221° |
| 2026-05-05 05:59 | 15.52229 | -16.86992 | 31942 ft | 434 kts | 222° |
| 2026-05-05 05:59 | 15.47382 | -16.90778 | 31940 ft | 434 kts | 222° |
| 2026-05-05 06:00 | 15.42566 | -16.94539 | 31933 ft | 434 kts | 221° |
| 2026-05-05 06:00 | 15.37722 | -16.98318 | 31926 ft | 436 kts | 222° |
| 2026-05-05 06:01 | 15.32859 | -17.02109 | 31929 ft | 437 kts | 222° |
| 2026-05-05 06:01 | 15.28011 | -17.05887 | 31924 ft | 435 kts | 222° |
| 2026-05-05 06:02 | 15.23162 | -17.09664 | 31925 ft | 434 kts | 222° |
| 2026-05-05 06:02 | 15.18327 | -17.13428 | 31924 ft | 434 kts | 222° |
| 2026-05-05 06:03 | 15.13525 | -17.17163 | 31926 ft | 434 kts | 221° |
| 2026-05-05 06:03 | 15.08683 | -17.20928 | 31934 ft | 435 kts | 221° |
| 2026-05-05 06:04 | 15.03839 | -17.24692 | 31935 ft | 434 kts | 221° |
| 2026-05-05 06:04 | 14.99006 | -17.28445 | 31937 ft | 435 kts | 221° |
| 2026-05-05 06:05 | 14.94133 | -17.32226 | 31932 ft | 435 kts | 221° |
| 2026-05-05 06:05 | 14.89312 | -17.35966 | 31932 ft | 432 kts | 221° |
| 2026-05-05 06:06 | 14.84499 | -17.39699 | 31930 ft | 434 kts | 221° |
| 2026-05-05 06:06 | 14.79644 | -17.43460 | 31933 ft | 433 kts | 221° |
| 2026-05-05 06:07 | 14.74825 | -17.47190 | 31925 ft | 434 kts | 221° |
| 2026-05-05 06:07 | 14.69754 | -17.50681 | 31921 ft | 438 kts | 218° |
| 2026-05-05 06:08 | 14.64673 | -17.54125 | 31919 ft | 438 kts | 218° |
| 2026-05-05 06:08 | 14.59563 | -17.57593 | 31920 ft | 439 kts | 218° |
| 2026-05-05 06:09 | 14.54461 | -17.61052 | 31920 ft | 436 kts | 218° |
| 2026-05-05 06:09 | 14.49378 | -17.64500 | 31921 ft | 437 kts | 218° |
| 2026-05-05 06:10 | 14.44297 | -17.67943 | 31932 ft | 439 kts | 217° |
| 2026-05-05 06:10 | 14.39198 | -17.71396 | 31933 ft | 439 kts | 217° |
| 2026-05-05 06:11 | 14.34094 | -17.74851 | 31930 ft | 438 kts | 217° |
| 2026-05-05 06:11 | 14.28981 | -17.78311 | 31929 ft | 439 kts | 217° |
| 2026-05-05 06:12 | 14.24001 | -17.81678 | 31933 ft | 438 kts | 217° |
| 2026-05-05 06:12 | 14.18893 | -17.85130 | 31943 ft | 440 kts | 217° |
| 2026-05-05 06:13 | 14.13795 | -17.88573 | 31937 ft | 439 kts | 217° |
| 2026-05-05 06:13 | 14.08691 | -17.92019 | 31941 ft | 439 kts | 217° |
| 2026-05-05 06:14 | 14.03554 | -17.95485 | 31943 ft | 440 kts | 217° |
| 2026-05-05 06:14 | 13.98435 | -17.98937 | 31943 ft | 439 kts | 217° |
| 2026-05-05 06:15 | 13.93295 | -18.02401 | 31945 ft | 440 kts | 217° |
| 2026-05-05 06:15 | 13.88179 | -18.05846 | 31946 ft | 439 kts | 217° |
| 2026-05-05 06:16 | 13.83067 | -18.09286 | 31945 ft | 438 kts | 217° |
| 2026-05-05 06:16 | 13.77955 | -18.12725 | 31943 ft | 440 kts | 217° |
| 2026-05-05 06:17 | 13.72807 | -18.16186 | 31938 ft | 440 kts | 217° |
| 2026-05-05 06:17 | 13.67676 | -18.19634 | 31941 ft | 440 kts | 216° |
| 2026-05-05 06:18 | 13.62544 | -18.23081 | 31939 ft | 439 kts | 216° |
| 2026-05-05 06:18 | 13.57401 | -18.26534 | 31940 ft | 440 kts | 216° |
| 2026-05-05 06:19 | 13.52270 | -18.29975 | 31942 ft | 440 kts | 216° |
| 2026-05-05 06:19 | 13.47137 | -18.33417 | 31939 ft | 440 kts | 216° |
| 2026-05-05 06:20 | 13.42014 | -18.36850 | 31938 ft | 440 kts | 216° |
| 2026-05-05 06:20 | 13.36891 | -18.40282 | 31938 ft | 440 kts | 216° |
| 2026-05-05 06:21 | 13.31742 | -18.43730 | 31940 ft | 440 kts | 216° |
| 2026-05-05 06:21 | 13.26631 | -18.47150 | 31936 ft | 440 kts | 216° |
| 2026-05-05 06:22 | 13.21485 | -18.50593 | 31936 ft | 440 kts | 216° |
| 2026-05-05 06:22 | 13.16353 | -18.54023 | 31940 ft | 441 kts | 216° |
| 2026-05-05 06:23 | 13.11204 | -18.57464 | 31939 ft | 441 kts | 216° |
| 2026-05-05 06:23 | 13.06063 | -18.60897 | 31936 ft | 441 kts | 216° |
| 2026-05-05 06:24 | 13.00904 | -18.64341 | 31939 ft | 441 kts | 216° |
| 2026-05-05 06:24 | 12.95732 | -18.67792 | 31947 ft | 442 kts | 216° |
| 2026-05-05 06:25 | 12.90600 | -18.71214 | 31950 ft | 441 kts | 216° |
| 2026-05-05 06:25 | 12.85428 | -18.74662 | 31950 ft | 441 kts | 215° |
| 2026-05-05 06:26 | 12.80272 | -18.78097 | 31950 ft | 442 kts | 215° |
| 2026-05-05 06:26 | 12.75096 | -18.81544 | 31950 ft | 443 kts | 216° |
| 2026-05-05 06:27 | 12.67339 | -18.86705 | 31949 ft | 441 kts | 216° |
| 2026-05-05 06:28 | 12.62181 | -18.90136 | 31945 ft | 442 kts | 216° |
| 2026-05-05 06:28 | 12.57029 | -18.93560 | 31941 ft | 442 kts | 216° |
| 2026-05-05 06:29 | 12.51859 | -18.96996 | 31937 ft | 443 kts | 216° |
| 2026-05-05 06:29 | 12.46681 | -19.00435 | 31938 ft | 443 kts | 216° |
| 2026-05-05 06:30 | 12.41512 | -19.03865 | 31935 ft | 444 kts | 215° |
| 2026-05-05 06:30 | 12.36324 | -19.07308 | 31937 ft | 444 kts | 215° |
| 2026-05-05 06:31 | 12.31114 | -19.10762 | 31942 ft | 444 kts | 215° |
| 2026-05-05 06:31 | 12.25930 | -19.14198 | 31940 ft | 444 kts | 215° |
| 2026-05-05 06:32 | 12.20740 | -19.17637 | 31941 ft | 444 kts | 215° |
| 2026-05-05 06:32 | 12.15545 | -19.21076 | 31944 ft | 443 kts | 215° |
| 2026-05-05 06:33 | 12.10368 | -19.24504 | 31943 ft | 444 kts | 215° |
| 2026-05-05 06:33 | 12.05169 | -19.27942 | 31940 ft | 444 kts | 215° |
| 2026-05-05 06:34 | 11.99998 | -19.31362 | 31942 ft | 445 kts | 215° |
| 2026-05-05 06:34 | 11.94767 | -19.34819 | 31939 ft | 446 kts | 215° |
| 2026-05-05 06:35 | 11.89586 | -19.38242 | 31941 ft | 445 kts | 215° |
| 2026-05-05 06:35 | 11.84359 | -19.41694 | 31944 ft | 446 kts | 215° |
| 2026-05-05 06:36 | 11.79109 | -19.45159 | 31944 ft | 446 kts | 215° |
| 2026-05-05 06:36 | 11.73926 | -19.48578 | 31942 ft | 445 kts | 215° |
| 2026-05-05 06:37 | 11.68708 | -19.52019 | 31942 ft | 445 kts | 215° |
| 2026-05-05 06:37 | 11.63471 | -19.55471 | 31943 ft | 446 kts | 215° |
| 2026-05-05 06:38 | 11.58266 | -19.58900 | 31943 ft | 446 kts | 215° |
| 2026-05-05 06:38 | 11.53049 | -19.62336 | 31942 ft | 446 kts | 215° |
| 2026-05-05 06:39 | 11.47814 | -19.65782 | 31946 ft | 447 kts | 215° |
| 2026-05-05 06:39 | 11.42578 | -19.69227 | 31948 ft | 446 kts | 214° |
| 2026-05-05 06:40 | 11.37351 | -19.72663 | 31949 ft | 447 kts | 214° |
| 2026-05-05 06:40 | 11.32152 | -19.76082 | 31947 ft | 447 kts | 214° |
| 2026-05-05 06:41 | 11.26904 | -19.79530 | 31949 ft | 447 kts | 214° |
| 2026-05-05 06:41 | 11.21653 | -19.82979 | 31946 ft | 447 kts | 214° |
| 2026-05-05 06:42 | 11.16445 | -19.86397 | 31947 ft | 447 kts | 214° |
| 2026-05-05 06:42 | 11.11194 | -19.89844 | 31946 ft | 449 kts | 214° |
| 2026-05-05 06:43 | 11.05916 | -19.93306 | 31945 ft | 448 kts | 214° |
| 2026-05-05 06:43 | 11.00708 | -19.96720 | 31943 ft | 447 kts | 214° |
| 2026-05-05 06:44 | 10.95456 | -20.00162 | 31944 ft | 448 kts | 214° |
| 2026-05-05 06:44 | 10.90204 | -20.03602 | 31944 ft | 447 kts | 214° |
| 2026-05-05 06:45 | 10.84951 | -20.07042 | 31948 ft | 448 kts | 214° |
| 2026-05-05 06:45 | 10.79688 | -20.10487 | 31949 ft | 449 kts | 214° |
| 2026-05-05 06:46 | 10.74443 | -20.13919 | 31951 ft | 450 kts | 214° |
| 2026-05-05 06:46 | 10.69162 | -20.17372 | 31950 ft | 450 kts | 214° |
| 2026-05-05 06:47 | 10.63920 | -20.20799 | 31955 ft | 448 kts | 214° |
| 2026-05-05 06:47 | 10.58624 | -20.24260 | 31957 ft | 450 kts | 214° |
| 2026-05-05 06:48 | 10.53345 | -20.27708 | 31955 ft | 450 kts | 214° |
| 2026-05-05 06:48 | 10.48096 | -20.31134 | 31957 ft | 448 kts | 214° |
| 2026-05-05 06:49 | 10.42827 | -20.34573 | 31956 ft | 449 kts | 214° |
| 2026-05-05 06:49 | 10.37538 | -20.38023 | 31956 ft | 451 kts | 214° |
| 2026-05-05 06:50 | 10.32257 | -20.41468 | 31954 ft | 452 kts | 214° |
| 2026-05-05 06:50 | 10.26951 | -20.44926 | 31952 ft | 450 kts | 214° |
| 2026-05-05 06:51 | 10.21680 | -20.48360 | 31960 ft | 451 kts | 214° |
| 2026-05-05 06:51 | 10.16414 | -20.51789 | 31958 ft | 451 kts | 213° |
| 2026-05-05 06:52 | 10.11128 | -20.55232 | 31962 ft | 452 kts | 213° |
| 2026-05-05 06:52 | 10.05812 | -20.58691 | 31959 ft | 450 kts | 214° |
| 2026-05-05 06:53 | 10.00532 | -20.62126 | 31960 ft | 450 kts | 213° |
| 2026-05-05 06:53 | 9.95248 | -20.65562 | 31963 ft | 451 kts | 213° |
| 2026-05-05 06:54 | 9.89955 | -20.69002 | 31964 ft | 452 kts | 213° |
| 2026-05-05 06:54 | 9.84674 | -20.72434 | 31971 ft | 451 kts | 213° |
| 2026-05-05 06:55 | 9.79407 | -20.75855 | 31968 ft | 450 kts | 213° |
| 2026-05-05 06:55 | 9.74092 | -20.79306 | 31968 ft | 453 kts | 213° |
| 2026-05-05 06:56 | 9.70558 | -20.81599 | 31967 ft | 452 kts | 213° |